<?xml version="1.0" encoding="UTF-8" standalone="no" ?>
<gpx xmlns="http://www.topografix.com/GPX/1/1" xmlns:xsi="http://www.w3.org/2001/XMLSchema-instance" xsi:schemaLocation="http://www.topografix.com/GPX/1/1 http://www.topografix.com/GPX/1/1/gpx.xsd" version="1.1" creator="VisuGPX - https://www.visugpx.com">
  <metadata>
    <name>Rando du 5/09/26</name>
  </metadata>
  <wpt lat="42.96274" lon="-0.19689">
    <ele>894</ele>
    <name><![CDATA[Point de passage 1]]></name>
  </wpt>
  <wpt lat="42.96228" lon="-0.1964">
    <ele>848.5</ele>
    <name><![CDATA[Point de passage 2]]></name>
  </wpt>
  <trk>
    <name><![CDATA[Randonnée du 31/08/2026 à 11:11]]></name>
    <extensions>
      <line xmlns="http://www.topografix.com/GPX/gpx_style/0/2">
        <color>0000FF</color>
        <width>4</width>
      </line>
    </extensions>
    <trkseg>
      <trkpt lat="42.96274" lon="-0.19689">
        <ele>894</ele>
        <time>2026-08-31T09:11:56.000Z</time>
      </trkpt>
      <trkpt lat="42.96275" lon="-0.1968">
        <ele>903</ele>
        <time>2026-08-31T09:11:59.000Z</time>
      </trkpt>
      <trkpt lat="42.96292" lon="-0.19694">
        <ele>907</ele>
        <time>2026-08-31T09:12:15.000Z</time>
      </trkpt>
      <trkpt lat="42.96311" lon="-0.19715">
        <ele>909</ele>
        <time>2026-08-31T09:12:31.000Z</time>
      </trkpt>
      <trkpt lat="42.96332" lon="-0.1973">
        <ele>907</ele>
        <time>2026-08-31T09:12:48.000Z</time>
      </trkpt>
      <trkpt lat="42.96342" lon="-0.19756">
        <ele>908</ele>
        <time>2026-08-31T09:13:02.000Z</time>
      </trkpt>
      <trkpt lat="42.9636" lon="-0.19775">
        <ele>908</ele>
        <time>2026-08-31T09:13:23.000Z</time>
      </trkpt>
      <trkpt lat="42.96378" lon="-0.19799">
        <ele>909</ele>
        <time>2026-08-31T09:13:37.000Z</time>
      </trkpt>
      <trkpt lat="42.96395" lon="-0.19824">
        <ele>910</ele>
        <time>2026-08-31T09:13:52.000Z</time>
      </trkpt>
      <trkpt lat="42.9641" lon="-0.19848">
        <ele>910</ele>
        <time>2026-08-31T09:14:06.000Z</time>
      </trkpt>
      <trkpt lat="42.96425" lon="-0.19874">
        <ele>910</ele>
        <time>2026-08-31T09:14:20.000Z</time>
      </trkpt>
      <trkpt lat="42.96439" lon="-0.19901">
        <ele>910</ele>
        <time>2026-08-31T09:14:34.000Z</time>
      </trkpt>
      <trkpt lat="42.96449" lon="-0.19928">
        <ele>910</ele>
        <time>2026-08-31T09:14:48.000Z</time>
      </trkpt>
      <trkpt lat="42.96459" lon="-0.19957">
        <ele>909</ele>
        <time>2026-08-31T09:15:03.000Z</time>
      </trkpt>
      <trkpt lat="42.96469" lon="-0.19986">
        <ele>910</ele>
        <time>2026-08-31T09:15:17.000Z</time>
      </trkpt>
      <trkpt lat="42.9648" lon="-0.20013">
        <ele>910</ele>
        <time>2026-08-31T09:15:31.000Z</time>
      </trkpt>
      <trkpt lat="42.96492" lon="-0.20039">
        <ele>910</ele>
        <time>2026-08-31T09:15:44.000Z</time>
      </trkpt>
      <trkpt lat="42.96509" lon="-0.20063">
        <ele>910</ele>
        <time>2026-08-31T09:15:58.000Z</time>
      </trkpt>
      <trkpt lat="42.96526" lon="-0.20086">
        <ele>910</ele>
        <time>2026-08-31T09:16:12.000Z</time>
      </trkpt>
      <trkpt lat="42.96541" lon="-0.20106">
        <ele>910</ele>
        <time>2026-08-31T09:16:26.000Z</time>
      </trkpt>
      <trkpt lat="42.9656" lon="-0.20096">
        <ele>910</ele>
        <time>2026-08-31T09:16:44.000Z</time>
      </trkpt>
      <trkpt lat="42.96574" lon="-0.20067">
        <ele>909</ele>
        <time>2026-08-31T09:17:02.000Z</time>
      </trkpt>
      <trkpt lat="42.96582" lon="-0.20038">
        <ele>909</ele>
        <time>2026-08-31T09:17:17.000Z</time>
      </trkpt>
      <trkpt lat="42.96591" lon="-0.20005">
        <ele>909</ele>
        <time>2026-08-31T09:17:35.000Z</time>
      </trkpt>
      <trkpt lat="42.96595" lon="-0.19972">
        <ele>909</ele>
        <time>2026-08-31T09:17:50.000Z</time>
      </trkpt>
      <trkpt lat="42.96599" lon="-0.19942">
        <ele>909</ele>
        <time>2026-08-31T09:18:05.000Z</time>
      </trkpt>
      <trkpt lat="42.96605" lon="-0.19909">
        <ele>909</ele>
        <time>2026-08-31T09:18:23.000Z</time>
      </trkpt>
      <trkpt lat="42.96614" lon="-0.19876">
        <ele>908</ele>
        <time>2026-08-31T09:18:41.000Z</time>
      </trkpt>
      <trkpt lat="42.96622" lon="-0.19845">
        <ele>908</ele>
        <time>2026-08-31T09:18:56.000Z</time>
      </trkpt>
      <trkpt lat="42.96628" lon="-0.19811">
        <ele>908</ele>
        <time>2026-08-31T09:19:14.000Z</time>
      </trkpt>
      <trkpt lat="42.96631" lon="-0.1978">
        <ele>908</ele>
        <time>2026-08-31T09:19:41.000Z</time>
      </trkpt>
      <trkpt lat="42.96635" lon="-0.19749">
        <ele>909</ele>
        <time>2026-08-31T09:19:56.000Z</time>
      </trkpt>
      <trkpt lat="42.96641" lon="-0.19718">
        <ele>908</ele>
        <time>2026-08-31T09:20:11.000Z</time>
      </trkpt>
      <trkpt lat="42.96647" lon="-0.19688">
        <ele>907</ele>
        <time>2026-08-31T09:20:26.000Z</time>
      </trkpt>
      <trkpt lat="42.96653" lon="-0.19657">
        <ele>906</ele>
        <time>2026-08-31T09:20:41.000Z</time>
      </trkpt>
      <trkpt lat="42.96659" lon="-0.19624">
        <ele>906</ele>
        <time>2026-08-31T09:20:56.000Z</time>
      </trkpt>
      <trkpt lat="42.96666" lon="-0.19593">
        <ele>906</ele>
        <time>2026-08-31T09:21:11.000Z</time>
      </trkpt>
      <trkpt lat="42.96676" lon="-0.1956">
        <ele>907</ele>
        <time>2026-08-31T09:21:26.000Z</time>
      </trkpt>
      <trkpt lat="42.96684" lon="-0.19528">
        <ele>908</ele>
        <time>2026-08-31T09:21:41.000Z</time>
      </trkpt>
      <trkpt lat="42.96691" lon="-0.19496">
        <ele>908</ele>
        <time>2026-08-31T09:21:56.000Z</time>
      </trkpt>
      <trkpt lat="42.96698" lon="-0.19463">
        <ele>909</ele>
        <time>2026-08-31T09:22:11.000Z</time>
      </trkpt>
      <trkpt lat="42.96708" lon="-0.1943">
        <ele>910</ele>
        <time>2026-08-31T09:22:26.000Z</time>
      </trkpt>
      <trkpt lat="42.96718" lon="-0.19401">
        <ele>909</ele>
        <time>2026-08-31T09:22:38.000Z</time>
      </trkpt>
      <trkpt lat="42.96733" lon="-0.19372">
        <ele>907</ele>
        <time>2026-08-31T09:22:53.000Z</time>
      </trkpt>
      <trkpt lat="42.96748" lon="-0.19347">
        <ele>908</ele>
        <time>2026-08-31T09:23:05.000Z</time>
      </trkpt>
      <trkpt lat="42.96764" lon="-0.19319">
        <ele>907</ele>
        <time>2026-08-31T09:23:20.000Z</time>
      </trkpt>
      <trkpt lat="42.96764" lon="-0.19319">
        <ele>845</ele>
        <extensions>
          <visugpx:TrkExtension xmlns:visugpx="https://www.visugpx.com/editgpx/">
            <visugpx:node>1</visugpx:node>
            </visugpx:TrkExtension>
        </extensions>
      </trkpt>
      <trkpt lat="42.96961" lon="-0.19018">
        <ele>906</ele>
        <time>2026-08-31T09:26:19.000Z</time>
      </trkpt>
      <trkpt lat="42.97295" lon="-0.19327">
        <ele>918</ele>
        <time>2026-08-31T09:31:25.000Z</time>
      </trkpt>
      <trkpt lat="42.97315" lon="-0.19345">
        <ele>919</ele>
        <time>2026-08-31T09:31:46.000Z</time>
      </trkpt>
      <trkpt lat="42.97336" lon="-0.19366">
        <ele>921</ele>
        <time>2026-08-31T09:32:04.000Z</time>
      </trkpt>
      <trkpt lat="42.97358" lon="-0.19382">
        <ele>923</ele>
        <time>2026-08-31T09:32:22.000Z</time>
      </trkpt>
      <trkpt lat="42.9748" lon="-0.1942">
        <ele>936</ele>
        <time>2026-08-31T09:33:52.000Z</time>
      </trkpt>
      <trkpt lat="42.97497" lon="-0.19434">
        <ele>941</ele>
        <time>2026-08-31T09:34:07.000Z</time>
      </trkpt>
      <trkpt lat="42.97511" lon="-0.19423">
        <ele>946</ele>
        <time>2026-08-31T09:34:19.000Z</time>
      </trkpt>
      <trkpt lat="42.97514" lon="-0.19447">
        <ele>952</ele>
        <time>2026-08-31T09:34:40.000Z</time>
      </trkpt>
      <trkpt lat="42.97515" lon="-0.19473">
        <ele>957</ele>
        <time>2026-08-31T09:34:58.000Z</time>
      </trkpt>
      <trkpt lat="42.97528" lon="-0.19452">
        <ele>962</ele>
        <time>2026-08-31T09:35:13.000Z</time>
      </trkpt>
      <trkpt lat="42.97542" lon="-0.19425">
        <ele>967</ele>
        <time>2026-08-31T09:35:31.000Z</time>
      </trkpt>
      <trkpt lat="42.97555" lon="-0.19398">
        <ele>972</ele>
        <time>2026-08-31T09:37:04.000Z</time>
      </trkpt>
      <trkpt lat="42.97563" lon="-0.19369">
        <ele>976</ele>
        <time>2026-08-31T09:37:19.000Z</time>
      </trkpt>
      <trkpt lat="42.97571" lon="-0.19348">
        <ele>980</ele>
        <time>2026-08-31T09:37:34.000Z</time>
      </trkpt>
      <trkpt lat="42.97573" lon="-0.19376">
        <ele>983</ele>
        <time>2026-08-31T09:37:55.000Z</time>
      </trkpt>
      <trkpt lat="42.97575" lon="-0.19411">
        <ele>987</ele>
        <time>2026-08-31T09:38:10.000Z</time>
      </trkpt>
      <trkpt lat="42.97573" lon="-0.19443">
        <ele>992</ele>
        <time>2026-08-31T09:38:25.000Z</time>
      </trkpt>
      <trkpt lat="42.97572" lon="-0.19475">
        <ele>996</ele>
        <time>2026-08-31T09:38:40.000Z</time>
      </trkpt>
      <trkpt lat="42.97578" lon="-0.195">
        <ele>1000</ele>
        <time>2026-08-31T09:38:55.000Z</time>
      </trkpt>
      <trkpt lat="42.9759" lon="-0.19482">
        <ele>1003</ele>
        <time>2026-08-31T09:39:34.000Z</time>
      </trkpt>
      <trkpt lat="42.976" lon="-0.19452">
        <ele>1007</ele>
        <time>2026-08-31T09:39:49.000Z</time>
      </trkpt>
      <trkpt lat="42.97611" lon="-0.19421">
        <ele>1010</ele>
        <time>2026-08-31T09:40:04.000Z</time>
      </trkpt>
      <trkpt lat="42.97623" lon="-0.19394">
        <ele>1013</ele>
        <time>2026-08-31T09:40:19.000Z</time>
      </trkpt>
      <trkpt lat="42.97632" lon="-0.19366">
        <ele>1008</ele>
        <time>2026-08-31T09:40:34.000Z</time>
      </trkpt>
      <trkpt lat="42.97642" lon="-0.19337">
        <ele>1001</ele>
        <time>2026-08-31T09:40:49.000Z</time>
      </trkpt>
      <trkpt lat="42.97652" lon="-0.19308">
        <ele>992</ele>
        <time>2026-08-31T09:41:04.000Z</time>
      </trkpt>
      <trkpt lat="42.97661" lon="-0.19278">
        <ele>974</ele>
        <time>2026-08-31T09:41:19.000Z</time>
      </trkpt>
      <trkpt lat="42.97669" lon="-0.19254">
        <ele>963</ele>
        <time>2026-08-31T09:41:34.000Z</time>
      </trkpt>
      <trkpt lat="42.97673" lon="-0.19277">
        <ele>950</ele>
        <time>2026-08-31T09:42:01.000Z</time>
      </trkpt>
      <trkpt lat="42.97673" lon="-0.19313">
        <ele>936</ele>
        <time>2026-08-31T09:42:19.000Z</time>
      </trkpt>
      <trkpt lat="42.97672" lon="-0.19346">
        <ele>929</ele>
        <time>2026-08-31T09:42:34.000Z</time>
      </trkpt>
      <trkpt lat="42.97673" lon="-0.19381">
        <ele>921</ele>
        <time>2026-08-31T09:42:49.000Z</time>
      </trkpt>
      <trkpt lat="42.9768" lon="-0.19413">
        <ele>916</ele>
        <time>2026-08-31T09:43:04.000Z</time>
      </trkpt>
      <trkpt lat="42.97693" lon="-0.1944">
        <ele>911</ele>
        <time>2026-08-31T09:43:19.000Z</time>
      </trkpt>
      <trkpt lat="42.97711" lon="-0.19462">
        <ele>908</ele>
        <time>2026-08-31T09:43:34.000Z</time>
      </trkpt>
      <trkpt lat="42.97728" lon="-0.1948">
        <ele>906</ele>
        <time>2026-08-31T09:44:04.000Z</time>
      </trkpt>
      <trkpt lat="42.97739" lon="-0.1946">
        <ele>904</ele>
        <time>2026-08-31T09:44:25.000Z</time>
      </trkpt>
      <trkpt lat="42.97739" lon="-0.1943">
        <ele>902</ele>
        <time>2026-08-31T09:44:40.000Z</time>
      </trkpt>
      <trkpt lat="42.9774" lon="-0.19397">
        <ele>907</ele>
        <time>2026-08-31T09:45:13.000Z</time>
      </trkpt>
      <trkpt lat="42.9774" lon="-0.19369">
        <ele>915</ele>
        <time>2026-08-31T09:45:28.000Z</time>
      </trkpt>
      <trkpt lat="42.97759" lon="-0.19373">
        <ele>927</ele>
        <time>2026-08-31T09:46:13.000Z</time>
      </trkpt>
      <trkpt lat="42.97773" lon="-0.19397">
        <ele>944</ele>
        <time>2026-08-31T09:46:27.000Z</time>
      </trkpt>
      <trkpt lat="42.97783" lon="-0.19426">
        <ele>961</ele>
        <time>2026-08-31T09:46:42.000Z</time>
      </trkpt>
      <trkpt lat="42.97793" lon="-0.19457">
        <ele>978</ele>
        <time>2026-08-31T09:46:55.000Z</time>
      </trkpt>
      <trkpt lat="42.97806" lon="-0.19485">
        <ele>995</ele>
        <time>2026-08-31T09:47:10.000Z</time>
      </trkpt>
      <trkpt lat="42.97826" lon="-0.19505">
        <ele>1011</ele>
        <time>2026-08-31T09:47:25.000Z</time>
      </trkpt>
      <trkpt lat="42.97844" lon="-0.19529">
        <ele>1028</ele>
        <time>2026-08-31T09:47:40.000Z</time>
      </trkpt>
      <trkpt lat="42.97864" lon="-0.19553">
        <ele>1043</ele>
        <time>2026-08-31T09:47:55.000Z</time>
      </trkpt>
      <trkpt lat="42.97881" lon="-0.19574">
        <ele>1057</ele>
        <time>2026-08-31T09:48:07.000Z</time>
      </trkpt>
      <trkpt lat="42.979" lon="-0.19594">
        <ele>1070</ele>
        <time>2026-08-31T09:49:55.000Z</time>
      </trkpt>
      <trkpt lat="42.97917" lon="-0.19617">
        <ele>1079</ele>
        <time>2026-08-31T09:50:10.000Z</time>
      </trkpt>
      <trkpt lat="42.97934" lon="-0.19638">
        <ele>1086</ele>
        <time>2026-08-31T09:50:25.000Z</time>
      </trkpt>
      <trkpt lat="42.97949" lon="-0.19661">
        <ele>1093</ele>
        <time>2026-08-31T09:50:40.000Z</time>
      </trkpt>
      <trkpt lat="42.97963" lon="-0.19686">
        <ele>1098</ele>
        <time>2026-08-31T09:50:55.000Z</time>
      </trkpt>
      <trkpt lat="42.97983" lon="-0.19708">
        <ele>1103</ele>
        <time>2026-08-31T09:51:14.000Z</time>
      </trkpt>
      <trkpt lat="42.98003" lon="-0.19725">
        <ele>1108</ele>
        <time>2026-08-31T09:51:25.000Z</time>
      </trkpt>
      <trkpt lat="42.9802" lon="-0.19749">
        <ele>1112</ele>
        <time>2026-08-31T09:51:40.000Z</time>
      </trkpt>
      <trkpt lat="42.98035" lon="-0.19767">
        <ele>1116</ele>
        <time>2026-08-31T09:51:55.000Z</time>
      </trkpt>
      <trkpt lat="42.98044" lon="-0.19748">
        <ele>1120</ele>
        <time>2026-08-31T09:53:01.000Z</time>
      </trkpt>
      <trkpt lat="42.98058" lon="-0.19765">
        <ele>1123</ele>
        <time>2026-08-31T09:53:25.000Z</time>
      </trkpt>
      <trkpt lat="42.98073" lon="-0.19789">
        <ele>1127</ele>
        <time>2026-08-31T09:53:40.000Z</time>
      </trkpt>
      <trkpt lat="42.98087" lon="-0.19814">
        <ele>1131</ele>
        <time>2026-08-31T09:53:55.000Z</time>
      </trkpt>
      <trkpt lat="42.98099" lon="-0.1984">
        <ele>1135</ele>
        <time>2026-08-31T09:54:10.000Z</time>
      </trkpt>
      <trkpt lat="42.98108" lon="-0.19872">
        <ele>1138</ele>
        <time>2026-08-31T09:54:46.000Z</time>
      </trkpt>
      <trkpt lat="42.98124" lon="-0.19898">
        <ele>1142</ele>
        <time>2026-08-31T09:55:04.000Z</time>
      </trkpt>
      <trkpt lat="42.98136" lon="-0.19929">
        <ele>1146</ele>
        <time>2026-08-31T09:55:22.000Z</time>
      </trkpt>
      <trkpt lat="42.98151" lon="-0.19956">
        <ele>1150</ele>
        <time>2026-08-31T09:55:40.000Z</time>
      </trkpt>
      <trkpt lat="42.98163" lon="-0.19984">
        <ele>1154</ele>
        <time>2026-08-31T09:55:55.000Z</time>
      </trkpt>
      <trkpt lat="42.98175" lon="-0.20011">
        <ele>1158</ele>
        <time>2026-08-31T09:56:10.000Z</time>
      </trkpt>
      <trkpt lat="42.98187" lon="-0.20041">
        <ele>1162</ele>
        <time>2026-08-31T09:56:25.000Z</time>
      </trkpt>
      <trkpt lat="42.98203" lon="-0.2007">
        <ele>1165</ele>
        <time>2026-08-31T09:56:40.000Z</time>
      </trkpt>
      <trkpt lat="42.98219" lon="-0.20098">
        <ele>1169</ele>
        <time>2026-08-31T09:56:55.000Z</time>
      </trkpt>
      <trkpt lat="42.98236" lon="-0.2012">
        <ele>1174</ele>
        <time>2026-08-31T09:57:07.000Z</time>
      </trkpt>
      <trkpt lat="42.98254" lon="-0.2014">
        <ele>1180</ele>
        <time>2026-08-31T09:58:16.000Z</time>
      </trkpt>
      <trkpt lat="42.98274" lon="-0.20156">
        <ele>1187</ele>
        <time>2026-08-31T09:58:31.000Z</time>
      </trkpt>
      <trkpt lat="42.98291" lon="-0.20172">
        <ele>1193</ele>
        <time>2026-08-31T09:58:52.000Z</time>
      </trkpt>
      <trkpt lat="42.98286" lon="-0.202">
        <ele>1199</ele>
        <time>2026-08-31T09:59:13.000Z</time>
      </trkpt>
      <trkpt lat="42.98288" lon="-0.20228">
        <ele>1206</ele>
        <time>2026-08-31T09:59:34.000Z</time>
      </trkpt>
      <trkpt lat="42.9831" lon="-0.20238">
        <ele>1213</ele>
        <time>2026-08-31T09:59:49.000Z</time>
      </trkpt>
      <trkpt lat="42.98331" lon="-0.20229">
        <ele>1221</ele>
        <time>2026-08-31T10:01:04.000Z</time>
      </trkpt>
      <trkpt lat="42.98353" lon="-0.20235">
        <ele>1228</ele>
        <time>2026-08-31T10:01:22.000Z</time>
      </trkpt>
      <trkpt lat="42.98372" lon="-0.20243">
        <ele>1234</ele>
        <time>2026-08-31T10:01:38.000Z</time>
      </trkpt>
      <trkpt lat="42.98382" lon="-0.20218">
        <ele>1239</ele>
        <time>2026-08-31T10:01:59.000Z</time>
      </trkpt>
      <trkpt lat="42.98379" lon="-0.20187">
        <ele>1244</ele>
        <time>2026-08-31T10:02:11.000Z</time>
      </trkpt>
      <trkpt lat="42.98374" lon="-0.20157">
        <ele>1247</ele>
        <time>2026-08-31T10:02:23.000Z</time>
      </trkpt>
      <trkpt lat="42.98366" lon="-0.20124">
        <ele>1250</ele>
        <time>2026-08-31T10:02:59.000Z</time>
      </trkpt>
      <trkpt lat="42.98357" lon="-0.20095">
        <ele>1252</ele>
        <time>2026-08-31T10:03:17.000Z</time>
      </trkpt>
      <trkpt lat="42.98344" lon="-0.2007">
        <ele>1255</ele>
        <time>2026-08-31T10:04:36.000Z</time>
      </trkpt>
      <trkpt lat="42.98335" lon="-0.2004">
        <ele>1257</ele>
        <time>2026-08-31T10:04:51.000Z</time>
      </trkpt>
      <trkpt lat="42.98327" lon="-0.2001">
        <ele>1259</ele>
        <time>2026-08-31T10:05:06.000Z</time>
      </trkpt>
      <trkpt lat="42.98316" lon="-0.1998">
        <ele>1262</ele>
        <time>2026-08-31T10:05:21.000Z</time>
      </trkpt>
      <trkpt lat="42.98305" lon="-0.19948">
        <ele>1264</ele>
        <time>2026-08-31T10:05:38.000Z</time>
      </trkpt>
      <trkpt lat="42.98296" lon="-0.19915">
        <ele>1267</ele>
        <time>2026-08-31T10:05:53.000Z</time>
      </trkpt>
      <trkpt lat="42.9829" lon="-0.19881">
        <ele>1269</ele>
        <time>2026-08-31T10:06:08.000Z</time>
      </trkpt>
      <trkpt lat="42.98289" lon="-0.19845">
        <ele>1273</ele>
        <time>2026-08-31T10:06:23.000Z</time>
      </trkpt>
      <trkpt lat="42.98291" lon="-0.19809">
        <ele>1276</ele>
        <time>2026-08-31T10:06:38.000Z</time>
      </trkpt>
      <trkpt lat="42.98295" lon="-0.19774">
        <ele>1280</ele>
        <time>2026-08-31T10:06:53.000Z</time>
      </trkpt>
      <trkpt lat="42.98299" lon="-0.19748">
        <ele>1284</ele>
        <time>2026-08-31T10:07:08.000Z</time>
      </trkpt>
      <trkpt lat="42.98313" lon="-0.19768">
        <ele>1287</ele>
        <time>2026-08-31T10:07:38.000Z</time>
      </trkpt>
      <trkpt lat="42.98328" lon="-0.19793">
        <ele>1290</ele>
        <time>2026-08-31T10:07:50.000Z</time>
      </trkpt>
      <trkpt lat="42.9835" lon="-0.1981">
        <ele>1291</ele>
        <time>2026-08-31T10:08:05.000Z</time>
      </trkpt>
      <trkpt lat="42.98375" lon="-0.19816">
        <ele>1292</ele>
        <time>2026-08-31T10:08:20.000Z</time>
      </trkpt>
      <trkpt lat="42.984" lon="-0.19827">
        <ele>1291</ele>
        <time>2026-08-31T10:08:38.000Z</time>
      </trkpt>
      <trkpt lat="42.98424" lon="-0.19834">
        <ele>1291</ele>
        <time>2026-08-31T10:08:56.000Z</time>
      </trkpt>
      <trkpt lat="42.98446" lon="-0.19847">
        <ele>1290</ele>
        <time>2026-08-31T10:09:17.000Z</time>
      </trkpt>
      <trkpt lat="42.98467" lon="-0.19863">
        <ele>1290</ele>
        <time>2026-08-31T10:09:35.000Z</time>
      </trkpt>
      <trkpt lat="42.98485" lon="-0.19885">
        <ele>1291</ele>
        <time>2026-08-31T10:09:52.000Z</time>
      </trkpt>
      <trkpt lat="42.98504" lon="-0.19901">
        <ele>1293</ele>
        <time>2026-08-31T10:10:02.000Z</time>
      </trkpt>
      <trkpt lat="42.98525" lon="-0.19916">
        <ele>1295</ele>
        <time>2026-08-31T10:10:13.000Z</time>
      </trkpt>
      <trkpt lat="42.98545" lon="-0.19932">
        <ele>1298</ele>
        <time>2026-08-31T10:10:26.000Z</time>
      </trkpt>
      <trkpt lat="42.98562" lon="-0.19951">
        <ele>1300</ele>
        <time>2026-08-31T10:10:46.000Z</time>
      </trkpt>
      <trkpt lat="42.98582" lon="-0.19967">
        <ele>1302</ele>
        <time>2026-08-31T10:11:01.000Z</time>
      </trkpt>
      <trkpt lat="42.98602" lon="-0.19985">
        <ele>1305</ele>
        <time>2026-08-31T10:11:19.000Z</time>
      </trkpt>
      <trkpt lat="42.98621" lon="-0.20005">
        <ele>1307</ele>
        <time>2026-08-31T10:11:37.000Z</time>
      </trkpt>
      <trkpt lat="42.98639" lon="-0.20027">
        <ele>1310</ele>
        <time>2026-08-31T10:11:55.000Z</time>
      </trkpt>
      <trkpt lat="42.98659" lon="-0.20046">
        <ele>1313</ele>
        <time>2026-08-31T10:12:13.000Z</time>
      </trkpt>
      <trkpt lat="42.98679" lon="-0.20066">
        <ele>1317</ele>
        <time>2026-08-31T10:12:34.000Z</time>
      </trkpt>
      <trkpt lat="42.98697" lon="-0.20085">
        <ele>1320</ele>
        <time>2026-08-31T10:12:52.000Z</time>
      </trkpt>
      <trkpt lat="42.98712" lon="-0.20109">
        <ele>1324</ele>
        <time>2026-08-31T10:13:10.000Z</time>
      </trkpt>
      <trkpt lat="42.98726" lon="-0.20134">
        <ele>1328</ele>
        <time>2026-08-31T10:13:28.000Z</time>
      </trkpt>
      <trkpt lat="42.98739" lon="-0.2016">
        <ele>1332</ele>
        <time>2026-08-31T10:13:46.000Z</time>
      </trkpt>
      <trkpt lat="42.98752" lon="-0.20184">
        <ele>1336</ele>
        <time>2026-08-31T10:14:04.000Z</time>
      </trkpt>
      <trkpt lat="42.98765" lon="-0.2021">
        <ele>1340</ele>
        <time>2026-08-31T10:14:22.000Z</time>
      </trkpt>
      <trkpt lat="42.98775" lon="-0.2024">
        <ele>1344</ele>
        <time>2026-08-31T10:14:40.000Z</time>
      </trkpt>
      <trkpt lat="42.98786" lon="-0.20268">
        <ele>1348</ele>
        <time>2026-08-31T10:14:58.000Z</time>
      </trkpt>
      <trkpt lat="42.98802" lon="-0.20292">
        <ele>1352</ele>
        <time>2026-08-31T10:15:19.000Z</time>
      </trkpt>
      <trkpt lat="42.98824" lon="-0.20303">
        <ele>1356</ele>
        <time>2026-08-31T10:15:37.000Z</time>
      </trkpt>
      <trkpt lat="42.98847" lon="-0.20307">
        <ele>1361</ele>
        <time>2026-08-31T10:15:55.000Z</time>
      </trkpt>
      <trkpt lat="42.98869" lon="-0.20303">
        <ele>1366</ele>
        <time>2026-08-31T10:16:10.000Z</time>
      </trkpt>
      <trkpt lat="42.98892" lon="-0.20303">
        <ele>1370</ele>
        <time>2026-08-31T10:16:25.000Z</time>
      </trkpt>
      <trkpt lat="42.98916" lon="-0.20302">
        <ele>1374</ele>
        <time>2026-08-31T10:16:43.000Z</time>
      </trkpt>
      <trkpt lat="42.98939" lon="-0.20301">
        <ele>1378</ele>
        <time>2026-08-31T10:17:19.000Z</time>
      </trkpt>
      <trkpt lat="42.9896" lon="-0.20314">
        <ele>1382</ele>
        <time>2026-08-31T10:17:37.000Z</time>
      </trkpt>
      <trkpt lat="42.98979" lon="-0.20333">
        <ele>1388</ele>
        <time>2026-08-31T10:17:55.000Z</time>
      </trkpt>
      <trkpt lat="42.99001" lon="-0.20333">
        <ele>1394</ele>
        <time>2026-08-31T10:18:25.000Z</time>
      </trkpt>
      <trkpt lat="42.99024" lon="-0.20339">
        <ele>1399</ele>
        <time>2026-08-31T10:18:46.000Z</time>
      </trkpt>
      <trkpt lat="42.99046" lon="-0.20344">
        <ele>1404</ele>
        <time>2026-08-31T10:19:04.000Z</time>
      </trkpt>
      <trkpt lat="42.9907" lon="-0.20339">
        <ele>1408</ele>
        <time>2026-08-31T10:19:31.000Z</time>
      </trkpt>
      <trkpt lat="42.99093" lon="-0.20341">
        <ele>1410</ele>
        <time>2026-08-31T10:19:55.000Z</time>
      </trkpt>
      <trkpt lat="42.99115" lon="-0.20327">
        <ele>1412</ele>
        <time>2026-08-31T10:24:08.000Z</time>
      </trkpt>
      <trkpt lat="42.99138" lon="-0.20315">
        <ele>1414</ele>
        <time>2026-08-31T10:24:26.000Z</time>
      </trkpt>
      <trkpt lat="42.99162" lon="-0.20324">
        <ele>1415</ele>
        <time>2026-08-31T10:24:44.000Z</time>
      </trkpt>
      <trkpt lat="42.99184" lon="-0.20337">
        <ele>1416</ele>
        <time>2026-08-31T10:25:02.000Z</time>
      </trkpt>
      <trkpt lat="42.99208" lon="-0.20351">
        <ele>1417</ele>
        <time>2026-08-31T10:25:20.000Z</time>
      </trkpt>
      <trkpt lat="42.99231" lon="-0.20365">
        <ele>1417</ele>
        <time>2026-08-31T10:25:35.000Z</time>
      </trkpt>
      <trkpt lat="42.99252" lon="-0.20382">
        <ele>1418</ele>
        <time>2026-08-31T10:25:50.000Z</time>
      </trkpt>
      <trkpt lat="42.9927" lon="-0.20406">
        <ele>1418</ele>
        <time>2026-08-31T10:26:11.000Z</time>
      </trkpt>
      <trkpt lat="42.9929" lon="-0.20422">
        <ele>1418</ele>
        <time>2026-08-31T10:27:05.000Z</time>
      </trkpt>
      <trkpt lat="42.99315" lon="-0.20421">
        <ele>1418</ele>
        <time>2026-08-31T10:27:20.000Z</time>
      </trkpt>
      <trkpt lat="42.99339" lon="-0.20412">
        <ele>1419</ele>
        <time>2026-08-31T10:27:36.000Z</time>
      </trkpt>
      <trkpt lat="42.99363" lon="-0.20405">
        <ele>1419</ele>
        <time>2026-08-31T10:27:51.000Z</time>
      </trkpt>
      <trkpt lat="42.99384" lon="-0.20411">
        <ele>1418</ele>
        <time>2026-08-31T10:28:09.000Z</time>
      </trkpt>
      <trkpt lat="42.994" lon="-0.20437">
        <ele>1419</ele>
        <time>2026-08-31T10:28:27.000Z</time>
      </trkpt>
      <trkpt lat="42.99416" lon="-0.2046">
        <ele>1420</ele>
        <time>2026-08-31T10:28:42.000Z</time>
      </trkpt>
      <trkpt lat="42.99434" lon="-0.20485">
        <ele>1419</ele>
        <time>2026-08-31T10:29:00.000Z</time>
      </trkpt>
      <trkpt lat="42.99454" lon="-0.20505">
        <ele>1419</ele>
        <time>2026-08-31T10:29:18.000Z</time>
      </trkpt>
      <trkpt lat="42.99475" lon="-0.20516">
        <ele>1418</ele>
        <time>2026-08-31T10:29:33.000Z</time>
      </trkpt>
      <trkpt lat="42.99495" lon="-0.20509">
        <ele>1416</ele>
        <time>2026-08-31T10:29:48.000Z</time>
      </trkpt>
      <trkpt lat="42.99509" lon="-0.20482">
        <ele>1415</ele>
        <time>2026-08-31T10:30:00.000Z</time>
      </trkpt>
      <trkpt lat="42.99523" lon="-0.20455">
        <ele>1414</ele>
        <time>2026-08-31T10:30:15.000Z</time>
      </trkpt>
      <trkpt lat="42.99542" lon="-0.2044">
        <ele>1413</ele>
        <time>2026-08-31T10:30:33.000Z</time>
      </trkpt>
      <trkpt lat="42.99558" lon="-0.20416">
        <ele>1413</ele>
        <time>2026-08-31T10:30:48.000Z</time>
      </trkpt>
      <trkpt lat="42.99571" lon="-0.20388">
        <ele>1414</ele>
        <time>2026-08-31T10:31:03.000Z</time>
      </trkpt>
      <trkpt lat="42.99593" lon="-0.20371">
        <ele>1415</ele>
        <time>2026-08-31T10:31:21.000Z</time>
      </trkpt>
      <trkpt lat="42.99617" lon="-0.20362">
        <ele>1416</ele>
        <time>2026-08-31T10:31:42.000Z</time>
      </trkpt>
      <trkpt lat="42.99639" lon="-0.2035">
        <ele>1417</ele>
        <time>2026-08-31T10:32:00.000Z</time>
      </trkpt>
      <trkpt lat="42.99661" lon="-0.20348">
        <ele>1418</ele>
        <time>2026-08-31T10:32:18.000Z</time>
      </trkpt>
      <trkpt lat="42.99684" lon="-0.20357">
        <ele>1418</ele>
        <time>2026-08-31T10:32:33.000Z</time>
      </trkpt>
      <trkpt lat="42.99709" lon="-0.20361">
        <ele>1418</ele>
        <time>2026-08-31T10:32:51.000Z</time>
      </trkpt>
      <trkpt lat="42.99733" lon="-0.20363">
        <ele>1418</ele>
        <time>2026-08-31T10:33:06.000Z</time>
      </trkpt>
      <trkpt lat="42.99757" lon="-0.20371">
        <ele>1418</ele>
        <time>2026-08-31T10:33:24.000Z</time>
      </trkpt>
      <trkpt lat="42.9978" lon="-0.20383">
        <ele>1418</ele>
        <time>2026-08-31T10:33:42.000Z</time>
      </trkpt>
      <trkpt lat="42.99806" lon="-0.20385">
        <ele>1417</ele>
        <time>2026-08-31T10:33:57.000Z</time>
      </trkpt>
      <trkpt lat="42.99829" lon="-0.20377">
        <ele>1416</ele>
        <time>2026-08-31T10:34:09.000Z</time>
      </trkpt>
      <trkpt lat="42.99851" lon="-0.20369">
        <ele>1415</ele>
        <time>2026-08-31T10:34:25.000Z</time>
      </trkpt>
      <trkpt lat="42.99877" lon="-0.20345">
        <ele>1413</ele>
        <time>2026-08-31T10:34:42.000Z</time>
      </trkpt>
      <trkpt lat="42.99896" lon="-0.20326">
        <ele>1412</ele>
        <time>2026-08-31T10:34:54.000Z</time>
      </trkpt>
      <trkpt lat="42.99919" lon="-0.20318">
        <ele>1410</ele>
        <time>2026-08-31T10:35:15.000Z</time>
      </trkpt>
      <trkpt lat="42.99945" lon="-0.20321">
        <ele>1407</ele>
        <time>2026-08-31T10:35:33.000Z</time>
      </trkpt>
      <trkpt lat="42.99968" lon="-0.20324">
        <ele>1405</ele>
        <time>2026-08-31T10:35:45.000Z</time>
      </trkpt>
      <trkpt lat="42.99986" lon="-0.20341">
        <ele>1402</ele>
        <time>2026-08-31T10:36:00.000Z</time>
      </trkpt>
      <trkpt lat="42.99995" lon="-0.2037">
        <ele>1399</ele>
        <time>2026-08-31T10:36:18.000Z</time>
      </trkpt>
      <trkpt lat="43" lon="-0.204">
        <ele>1397</ele>
        <time>2026-08-31T10:36:33.000Z</time>
      </trkpt>
      <trkpt lat="43.00007" lon="-0.2043">
        <ele>1396</ele>
        <time>2026-08-31T10:36:47.000Z</time>
      </trkpt>
      <trkpt lat="43.00011" lon="-0.20463">
        <ele>1395</ele>
        <time>2026-08-31T10:37:04.000Z</time>
      </trkpt>
      <trkpt lat="43.00011" lon="-0.20495">
        <ele>1395</ele>
        <time>2026-08-31T10:37:19.000Z</time>
      </trkpt>
      <trkpt lat="43.00009" lon="-0.20528">
        <ele>1394</ele>
        <time>2026-08-31T10:37:36.000Z</time>
      </trkpt>
      <trkpt lat="43.00002" lon="-0.2056">
        <ele>1394</ele>
        <time>2026-08-31T10:37:52.000Z</time>
      </trkpt>
      <trkpt lat="42.99993" lon="-0.20588">
        <ele>1394</ele>
        <time>2026-08-31T10:38:06.000Z</time>
      </trkpt>
      <trkpt lat="42.99983" lon="-0.20617">
        <ele>1394</ele>
        <time>2026-08-31T10:38:21.000Z</time>
      </trkpt>
      <trkpt lat="42.99974" lon="-0.20645">
        <ele>1394</ele>
        <time>2026-08-31T10:38:35.000Z</time>
      </trkpt>
      <trkpt lat="42.99967" lon="-0.20675">
        <ele>1393</ele>
        <time>2026-08-31T10:38:49.000Z</time>
      </trkpt>
      <trkpt lat="42.99966" lon="-0.20707">
        <ele>1393</ele>
        <time>2026-08-31T10:39:04.000Z</time>
      </trkpt>
      <trkpt lat="42.9997" lon="-0.2074">
        <ele>1392</ele>
        <time>2026-08-31T10:39:18.000Z</time>
      </trkpt>
      <trkpt lat="42.99975" lon="-0.20773">
        <ele>1391</ele>
        <time>2026-08-31T10:39:33.000Z</time>
      </trkpt>
      <trkpt lat="42.99983" lon="-0.20805">
        <ele>1390</ele>
        <time>2026-08-31T10:39:47.000Z</time>
      </trkpt>
      <trkpt lat="42.99993" lon="-0.20835">
        <ele>1389</ele>
        <time>2026-08-31T10:40:01.000Z</time>
      </trkpt>
      <trkpt lat="43.00003" lon="-0.20865">
        <ele>1388</ele>
        <time>2026-08-31T10:40:15.000Z</time>
      </trkpt>
      <trkpt lat="43.00013" lon="-0.20893">
        <ele>1387</ele>
        <time>2026-08-31T10:40:30.000Z</time>
      </trkpt>
      <trkpt lat="43.00022" lon="-0.20922">
        <ele>1387</ele>
        <time>2026-08-31T10:40:44.000Z</time>
      </trkpt>
      <trkpt lat="43.00028" lon="-0.20952">
        <ele>1386</ele>
        <time>2026-08-31T10:40:58.000Z</time>
      </trkpt>
      <trkpt lat="43.00024" lon="-0.20984">
        <ele>1386</ele>
        <time>2026-08-31T10:41:13.000Z</time>
      </trkpt>
      <trkpt lat="43.00012" lon="-0.21015">
        <ele>1385</ele>
        <time>2026-08-31T10:41:29.000Z</time>
      </trkpt>
      <trkpt lat="42.99995" lon="-0.21041">
        <ele>1384</ele>
        <time>2026-08-31T10:41:44.000Z</time>
      </trkpt>
      <trkpt lat="42.99977" lon="-0.21067">
        <ele>1384</ele>
        <time>2026-08-31T10:41:59.000Z</time>
      </trkpt>
      <trkpt lat="42.99959" lon="-0.21093">
        <ele>1383</ele>
        <time>2026-08-31T10:42:14.000Z</time>
      </trkpt>
      <trkpt lat="42.99939" lon="-0.21113">
        <ele>1383</ele>
        <time>2026-08-31T10:42:29.000Z</time>
      </trkpt>
      <trkpt lat="42.99919" lon="-0.21129">
        <ele>1382</ele>
        <time>2026-08-31T10:42:44.000Z</time>
      </trkpt>
      <trkpt lat="42.99902" lon="-0.21149">
        <ele>1381</ele>
        <time>2026-08-31T10:42:56.000Z</time>
      </trkpt>
      <trkpt lat="42.99882" lon="-0.21167">
        <ele>1380</ele>
        <time>2026-08-31T10:43:11.000Z</time>
      </trkpt>
      <trkpt lat="42.99861" lon="-0.21184">
        <ele>1380</ele>
        <time>2026-08-31T10:43:26.000Z</time>
      </trkpt>
      <trkpt lat="42.99842" lon="-0.21206">
        <ele>1379</ele>
        <time>2026-08-31T10:43:41.000Z</time>
      </trkpt>
      <trkpt lat="42.99829" lon="-0.21234">
        <ele>1379</ele>
        <time>2026-08-31T10:43:53.000Z</time>
      </trkpt>
      <trkpt lat="42.99825" lon="-0.21265">
        <ele>1379</ele>
        <time>2026-08-31T10:44:05.000Z</time>
      </trkpt>
      <trkpt lat="42.99823" lon="-0.21298">
        <ele>1378</ele>
        <time>2026-08-31T10:44:17.000Z</time>
      </trkpt>
      <trkpt lat="42.99811" lon="-0.21327">
        <ele>1377</ele>
        <time>2026-08-31T10:44:31.000Z</time>
      </trkpt>
      <trkpt lat="42.99793" lon="-0.2135">
        <ele>1376</ele>
        <time>2026-08-31T10:44:46.000Z</time>
      </trkpt>
      <trkpt lat="42.99771" lon="-0.21365">
        <ele>1374</ele>
        <time>2026-08-31T10:45:01.000Z</time>
      </trkpt>
      <trkpt lat="42.99746" lon="-0.21374">
        <ele>1373</ele>
        <time>2026-08-31T10:45:16.000Z</time>
      </trkpt>
      <trkpt lat="42.99723" lon="-0.21383">
        <ele>1372</ele>
        <time>2026-08-31T10:45:28.000Z</time>
      </trkpt>
      <trkpt lat="42.99698" lon="-0.21389">
        <ele>1371</ele>
        <time>2026-08-31T10:45:43.000Z</time>
      </trkpt>
      <trkpt lat="42.99673" lon="-0.21392">
        <ele>1371</ele>
        <time>2026-08-31T10:45:58.000Z</time>
      </trkpt>
      <trkpt lat="42.99648" lon="-0.21395">
        <ele>1370</ele>
        <time>2026-08-31T10:46:13.000Z</time>
      </trkpt>
      <trkpt lat="42.99625" lon="-0.21399">
        <ele>1369</ele>
        <time>2026-08-31T10:46:25.000Z</time>
      </trkpt>
      <trkpt lat="42.99603" lon="-0.21403">
        <ele>1367</ele>
        <time>2026-08-31T10:46:37.000Z</time>
      </trkpt>
      <trkpt lat="42.9958" lon="-0.21406">
        <ele>1366</ele>
        <time>2026-08-31T10:46:49.000Z</time>
      </trkpt>
      <trkpt lat="42.99554" lon="-0.21407">
        <ele>1364</ele>
        <time>2026-08-31T10:47:04.000Z</time>
      </trkpt>
      <trkpt lat="42.9953" lon="-0.21412">
        <ele>1363</ele>
        <time>2026-08-31T10:47:19.000Z</time>
      </trkpt>
      <trkpt lat="42.99506" lon="-0.21417">
        <ele>1362</ele>
        <time>2026-08-31T10:47:34.000Z</time>
      </trkpt>
      <trkpt lat="42.99482" lon="-0.21426">
        <ele>1360</ele>
        <time>2026-08-31T10:47:52.000Z</time>
      </trkpt>
      <trkpt lat="42.99457" lon="-0.21432">
        <ele>1358</ele>
        <time>2026-08-31T10:48:06.000Z</time>
      </trkpt>
      <trkpt lat="42.99436" lon="-0.21445">
        <ele>1357</ele>
        <time>2026-08-31T10:48:20.000Z</time>
      </trkpt>
      <trkpt lat="42.99426" lon="-0.21479">
        <ele>1356</ele>
        <time>2026-08-31T10:48:34.000Z</time>
      </trkpt>
      <trkpt lat="42.99434" lon="-0.21509">
        <ele>1355</ele>
        <time>2026-08-31T10:48:46.000Z</time>
      </trkpt>
      <trkpt lat="42.99452" lon="-0.21532">
        <ele>1355</ele>
        <time>2026-08-31T10:49:01.000Z</time>
      </trkpt>
      <trkpt lat="42.99476" lon="-0.21545">
        <ele>1356</ele>
        <time>2026-08-31T10:49:16.000Z</time>
      </trkpt>
      <trkpt lat="42.995" lon="-0.21551">
        <ele>1355</ele>
        <time>2026-08-31T10:49:31.000Z</time>
      </trkpt>
      <trkpt lat="42.99522" lon="-0.21562">
        <ele>1354</ele>
        <time>2026-08-31T10:49:48.000Z</time>
      </trkpt>
      <trkpt lat="42.99544" lon="-0.21572">
        <ele>1352</ele>
        <time>2026-08-31T10:50:02.000Z</time>
      </trkpt>
      <trkpt lat="42.99567" lon="-0.21577">
        <ele>1349</ele>
        <time>2026-08-31T10:50:17.000Z</time>
      </trkpt>
      <trkpt lat="42.99591" lon="-0.21581">
        <ele>1346</ele>
        <time>2026-08-31T10:50:32.000Z</time>
      </trkpt>
      <trkpt lat="42.99614" lon="-0.21584">
        <ele>1344</ele>
        <time>2026-08-31T10:50:45.000Z</time>
      </trkpt>
      <trkpt lat="42.99637" lon="-0.21592">
        <ele>1342</ele>
        <time>2026-08-31T10:50:59.000Z</time>
      </trkpt>
      <trkpt lat="42.99659" lon="-0.21605">
        <ele>1340</ele>
        <time>2026-08-31T10:51:11.000Z</time>
      </trkpt>
      <trkpt lat="42.99676" lon="-0.21625">
        <ele>1338</ele>
        <time>2026-08-31T10:51:24.000Z</time>
      </trkpt>
      <trkpt lat="42.9968" lon="-0.21654">
        <ele>1336</ele>
        <time>2026-08-31T10:51:38.000Z</time>
      </trkpt>
      <trkpt lat="42.99674" lon="-0.21682">
        <ele>1335</ele>
        <time>2026-08-31T10:51:52.000Z</time>
      </trkpt>
      <trkpt lat="42.99685" lon="-0.21706">
        <ele>1334</ele>
        <time>2026-08-31T10:52:06.000Z</time>
      </trkpt>
      <trkpt lat="42.99708" lon="-0.21715">
        <ele>1332</ele>
        <time>2026-08-31T10:52:20.000Z</time>
      </trkpt>
      <trkpt lat="42.99731" lon="-0.21718">
        <ele>1330</ele>
        <time>2026-08-31T10:52:34.000Z</time>
      </trkpt>
      <trkpt lat="42.99755" lon="-0.21715">
        <ele>1328</ele>
        <time>2026-08-31T10:52:51.000Z</time>
      </trkpt>
      <trkpt lat="42.99773" lon="-0.217">
        <ele>1325</ele>
        <time>2026-08-31T10:53:02.000Z</time>
      </trkpt>
      <trkpt lat="42.99795" lon="-0.21692">
        <ele>1322</ele>
        <time>2026-08-31T10:53:15.000Z</time>
      </trkpt>
      <trkpt lat="42.99818" lon="-0.2168">
        <ele>1318</ele>
        <time>2026-08-31T10:53:32.000Z</time>
      </trkpt>
      <trkpt lat="42.9984" lon="-0.21669">
        <ele>1314</ele>
        <time>2026-08-31T10:53:46.000Z</time>
      </trkpt>
      <trkpt lat="42.99863" lon="-0.21675">
        <ele>1310</ele>
        <time>2026-08-31T10:54:03.000Z</time>
      </trkpt>
      <trkpt lat="42.99883" lon="-0.21694">
        <ele>1306</ele>
        <time>2026-08-31T10:54:19.000Z</time>
      </trkpt>
      <trkpt lat="42.99895" lon="-0.21723">
        <ele>1303</ele>
        <time>2026-08-31T10:54:45.000Z</time>
      </trkpt>
      <trkpt lat="42.99904" lon="-0.21752">
        <ele>1299</ele>
        <time>2026-08-31T10:54:57.000Z</time>
      </trkpt>
      <trkpt lat="42.99919" lon="-0.21775">
        <ele>1296</ele>
        <time>2026-08-31T10:55:11.000Z</time>
      </trkpt>
      <trkpt lat="42.99939" lon="-0.2179">
        <ele>1293</ele>
        <time>2026-08-31T10:55:23.000Z</time>
      </trkpt>
      <trkpt lat="42.99962" lon="-0.218">
        <ele>1289</ele>
        <time>2026-08-31T10:55:38.000Z</time>
      </trkpt>
      <trkpt lat="42.99983" lon="-0.21789">
        <ele>1285</ele>
        <time>2026-08-31T10:55:52.000Z</time>
      </trkpt>
      <trkpt lat="42.99994" lon="-0.21763">
        <ele>1282</ele>
        <time>2026-08-31T10:56:05.000Z</time>
      </trkpt>
      <trkpt lat="43.00004" lon="-0.21733">
        <ele>1278</ele>
        <time>2026-08-31T10:56:19.000Z</time>
      </trkpt>
      <trkpt lat="43.00015" lon="-0.21705">
        <ele>1275</ele>
        <time>2026-08-31T10:56:33.000Z</time>
      </trkpt>
      <trkpt lat="43.00029" lon="-0.21681">
        <ele>1272</ele>
        <time>2026-08-31T10:56:47.000Z</time>
      </trkpt>
      <trkpt lat="43.00048" lon="-0.21663">
        <ele>1269</ele>
        <time>2026-08-31T10:57:19.000Z</time>
      </trkpt>
      <trkpt lat="43.00068" lon="-0.21648">
        <ele>1266</ele>
        <time>2026-08-31T10:57:36.000Z</time>
      </trkpt>
      <trkpt lat="43.00091" lon="-0.21637">
        <ele>1263</ele>
        <time>2026-08-31T10:57:54.000Z</time>
      </trkpt>
      <trkpt lat="43.00114" lon="-0.2163">
        <ele>1260</ele>
        <time>2026-08-31T10:58:10.000Z</time>
      </trkpt>
      <trkpt lat="43.00135" lon="-0.21614">
        <ele>1258</ele>
        <time>2026-08-31T10:58:26.000Z</time>
      </trkpt>
      <trkpt lat="43.00151" lon="-0.2159">
        <ele>1256</ele>
        <time>2026-08-31T10:58:42.000Z</time>
      </trkpt>
      <trkpt lat="43.00166" lon="-0.21564">
        <ele>1253</ele>
        <time>2026-08-31T10:58:59.000Z</time>
      </trkpt>
      <trkpt lat="43.00178" lon="-0.21537">
        <ele>1250</ele>
        <time>2026-08-31T10:59:14.000Z</time>
      </trkpt>
      <trkpt lat="43.00192" lon="-0.2151">
        <ele>1248</ele>
        <time>2026-08-31T10:59:30.000Z</time>
      </trkpt>
      <trkpt lat="43.00206" lon="-0.21483">
        <ele>1247</ele>
        <time>2026-08-31T10:59:47.000Z</time>
      </trkpt>
      <trkpt lat="43.00223" lon="-0.21458">
        <ele>1246</ele>
        <time>2026-08-31T11:00:04.000Z</time>
      </trkpt>
      <trkpt lat="43.00239" lon="-0.21434">
        <ele>1245</ele>
        <time>2026-08-31T11:00:20.000Z</time>
      </trkpt>
      <trkpt lat="43.00255" lon="-0.21413">
        <ele>1246</ele>
        <time>2026-08-31T11:00:34.000Z</time>
      </trkpt>
      <trkpt lat="43.00275" lon="-0.21396">
        <ele>1248</ele>
        <time>2026-08-31T11:00:46.000Z</time>
      </trkpt>
      <trkpt lat="43.00297" lon="-0.21379">
        <ele>1249</ele>
        <time>2026-08-31T11:00:56.000Z</time>
      </trkpt>
      <trkpt lat="43.00321" lon="-0.2137">
        <ele>1251</ele>
        <time>2026-08-31T11:01:06.000Z</time>
      </trkpt>
      <trkpt lat="43.00343" lon="-0.21361">
        <ele>1254</ele>
        <time>2026-08-31T11:01:16.000Z</time>
      </trkpt>
      <trkpt lat="43.00363" lon="-0.21348">
        <ele>1257</ele>
        <time>2026-08-31T11:01:26.000Z</time>
      </trkpt>
      <trkpt lat="43.00385" lon="-0.21329">
        <ele>1259</ele>
        <time>2026-08-31T11:01:36.000Z</time>
      </trkpt>
      <trkpt lat="43.00407" lon="-0.2131">
        <ele>1262</ele>
        <time>2026-08-31T11:01:46.000Z</time>
      </trkpt>
      <trkpt lat="43.00428" lon="-0.21294">
        <ele>1264</ele>
        <time>2026-08-31T11:01:56.000Z</time>
      </trkpt>
      <trkpt lat="43.00449" lon="-0.21276">
        <ele>1266</ele>
        <time>2026-08-31T11:02:06.000Z</time>
      </trkpt>
      <trkpt lat="43.0047" lon="-0.21258">
        <ele>1268</ele>
        <time>2026-08-31T11:02:14.000Z</time>
      </trkpt>
      <trkpt lat="43.00493" lon="-0.21239">
        <ele>1270</ele>
        <time>2026-08-31T11:02:25.000Z</time>
      </trkpt>
      <trkpt lat="43.00516" lon="-0.2122">
        <ele>1272</ele>
        <time>2026-08-31T11:02:35.000Z</time>
      </trkpt>
      <trkpt lat="43.00541" lon="-0.21203">
        <ele>1274</ele>
        <time>2026-08-31T11:02:45.000Z</time>
      </trkpt>
      <trkpt lat="43.00562" lon="-0.21183">
        <ele>1276</ele>
        <time>2026-08-31T11:02:56.000Z</time>
      </trkpt>
      <trkpt lat="43.00581" lon="-0.21161">
        <ele>1278</ele>
        <time>2026-08-31T11:03:08.000Z</time>
      </trkpt>
      <trkpt lat="43.00602" lon="-0.21142">
        <ele>1280</ele>
        <time>2026-08-31T11:03:21.000Z</time>
      </trkpt>
      <trkpt lat="43.00623" lon="-0.21125">
        <ele>1282</ele>
        <time>2026-08-31T11:03:33.000Z</time>
      </trkpt>
      <trkpt lat="43.00642" lon="-0.21105">
        <ele>1284</ele>
        <time>2026-08-31T11:03:45.000Z</time>
      </trkpt>
      <trkpt lat="43.00661" lon="-0.21085">
        <ele>1286</ele>
        <time>2026-08-31T11:03:58.000Z</time>
      </trkpt>
      <trkpt lat="43.00684" lon="-0.21069">
        <ele>1288</ele>
        <time>2026-08-31T11:04:10.000Z</time>
      </trkpt>
      <trkpt lat="43.00707" lon="-0.2106">
        <ele>1289</ele>
        <time>2026-08-31T11:04:25.000Z</time>
      </trkpt>
      <trkpt lat="43.00727" lon="-0.21041">
        <ele>1291</ele>
        <time>2026-08-31T11:04:37.000Z</time>
      </trkpt>
      <trkpt lat="43.00742" lon="-0.21017">
        <ele>1293</ele>
        <time>2026-08-31T11:04:49.000Z</time>
      </trkpt>
      <trkpt lat="43.00759" lon="-0.20998">
        <ele>1295</ele>
        <time>2026-08-31T11:05:01.000Z</time>
      </trkpt>
      <trkpt lat="43.00783" lon="-0.20999">
        <ele>1296</ele>
        <time>2026-08-31T11:05:16.000Z</time>
      </trkpt>
      <trkpt lat="43.00805" lon="-0.21006">
        <ele>1297</ele>
        <time>2026-08-31T11:05:28.000Z</time>
      </trkpt>
      <trkpt lat="43.00828" lon="-0.21005">
        <ele>1296</ele>
        <time>2026-08-31T11:05:40.000Z</time>
      </trkpt>
      <trkpt lat="43.0085" lon="-0.20996">
        <ele>1295</ele>
        <time>2026-08-31T11:05:55.000Z</time>
      </trkpt>
      <trkpt lat="43.00862" lon="-0.2101">
        <ele>1299</ele>
        <time>2026-08-31T11:13:45.000Z</time>
      </trkpt>
      <trkpt lat="43.00874" lon="-0.21039">
        <ele>1298</ele>
        <time>2026-08-31T11:13:59.000Z</time>
      </trkpt>
      <trkpt lat="43.00886" lon="-0.21067">
        <ele>1298</ele>
        <time>2026-08-31T11:14:13.000Z</time>
      </trkpt>
      <trkpt lat="43.00898" lon="-0.21094">
        <ele>1297</ele>
        <time>2026-08-31T11:14:25.000Z</time>
      </trkpt>
      <trkpt lat="43.0091" lon="-0.2112">
        <ele>1296</ele>
        <time>2026-08-31T11:14:38.000Z</time>
      </trkpt>
      <trkpt lat="43.00927" lon="-0.21141">
        <ele>1294</ele>
        <time>2026-08-31T11:14:50.000Z</time>
      </trkpt>
      <trkpt lat="43.00949" lon="-0.2115">
        <ele>1292</ele>
        <time>2026-08-31T11:15:03.000Z</time>
      </trkpt>
      <trkpt lat="43.0097" lon="-0.21165">
        <ele>1290</ele>
        <time>2026-08-31T11:15:17.000Z</time>
      </trkpt>
      <trkpt lat="43.00986" lon="-0.21191">
        <ele>1288</ele>
        <time>2026-08-31T11:15:33.000Z</time>
      </trkpt>
      <trkpt lat="43.01" lon="-0.21218">
        <ele>1286</ele>
        <time>2026-08-31T11:15:46.000Z</time>
      </trkpt>
      <trkpt lat="43.01013" lon="-0.21243">
        <ele>1285</ele>
        <time>2026-08-31T11:15:58.000Z</time>
      </trkpt>
      <trkpt lat="43.01034" lon="-0.21246">
        <ele>1283</ele>
        <time>2026-08-31T11:16:14.000Z</time>
      </trkpt>
      <trkpt lat="43.01054" lon="-0.21231">
        <ele>1280</ele>
        <time>2026-08-31T11:16:26.000Z</time>
      </trkpt>
      <trkpt lat="43.0107" lon="-0.21206">
        <ele>1278</ele>
        <time>2026-08-31T11:16:40.000Z</time>
      </trkpt>
      <trkpt lat="43.0109" lon="-0.21191">
        <ele>1274</ele>
        <time>2026-08-31T11:16:54.000Z</time>
      </trkpt>
      <trkpt lat="43.01108" lon="-0.21191">
        <ele>1271</ele>
        <time>2026-08-31T11:17:09.000Z</time>
      </trkpt>
      <trkpt lat="43.01108" lon="-0.21164">
        <ele>1269</ele>
        <time>2026-08-31T11:17:40.000Z</time>
      </trkpt>
      <trkpt lat="43.01094" lon="-0.21144">
        <ele>1265</ele>
        <time>2026-08-31T11:17:55.000Z</time>
      </trkpt>
      <trkpt lat="43.01073" lon="-0.21151">
        <ele>1261</ele>
        <time>2026-08-31T11:18:05.000Z</time>
      </trkpt>
      <trkpt lat="43.01053" lon="-0.2116">
        <ele>1258</ele>
        <time>2026-08-31T11:18:18.000Z</time>
      </trkpt>
      <trkpt lat="43.01042" lon="-0.21138">
        <ele>1256</ele>
        <time>2026-08-31T11:18:38.000Z</time>
      </trkpt>
      <trkpt lat="43.01043" lon="-0.21106">
        <ele>1253</ele>
        <time>2026-08-31T11:18:55.000Z</time>
      </trkpt>
      <trkpt lat="43.01046" lon="-0.21075">
        <ele>1251</ele>
        <time>2026-08-31T11:19:09.000Z</time>
      </trkpt>
      <trkpt lat="43.0105" lon="-0.21043">
        <ele>1250</ele>
        <time>2026-08-31T11:19:23.000Z</time>
      </trkpt>
      <trkpt lat="43.01053" lon="-0.21013">
        <ele>1248</ele>
        <time>2026-08-31T11:19:36.000Z</time>
      </trkpt>
      <trkpt lat="43.01044" lon="-0.20982">
        <ele>1246</ele>
        <time>2026-08-31T11:19:50.000Z</time>
      </trkpt>
      <trkpt lat="43.01033" lon="-0.20954">
        <ele>1244</ele>
        <time>2026-08-31T11:20:00.000Z</time>
      </trkpt>
      <trkpt lat="43.01027" lon="-0.20924">
        <ele>1242</ele>
        <time>2026-08-31T11:20:13.000Z</time>
      </trkpt>
      <trkpt lat="43.01021" lon="-0.20892">
        <ele>1239</ele>
        <time>2026-08-31T11:20:29.000Z</time>
      </trkpt>
      <trkpt lat="43.01013" lon="-0.20863">
        <ele>1238</ele>
        <time>2026-08-31T11:20:41.000Z</time>
      </trkpt>
      <trkpt lat="43.01005" lon="-0.20834">
        <ele>1236</ele>
        <time>2026-08-31T11:20:54.000Z</time>
      </trkpt>
      <trkpt lat="43.01001" lon="-0.20803">
        <ele>1233</ele>
        <time>2026-08-31T11:21:06.000Z</time>
      </trkpt>
      <trkpt lat="43.00995" lon="-0.20772">
        <ele>1231</ele>
        <time>2026-08-31T11:21:18.000Z</time>
      </trkpt>
      <trkpt lat="43.0099" lon="-0.2074">
        <ele>1229</ele>
        <time>2026-08-31T11:21:32.000Z</time>
      </trkpt>
      <trkpt lat="43.00981" lon="-0.20708">
        <ele>1227</ele>
        <time>2026-08-31T11:21:46.000Z</time>
      </trkpt>
      <trkpt lat="43.00968" lon="-0.2068">
        <ele>1225</ele>
        <time>2026-08-31T11:22:00.000Z</time>
      </trkpt>
      <trkpt lat="43.00959" lon="-0.2065">
        <ele>1223</ele>
        <time>2026-08-31T11:22:11.000Z</time>
      </trkpt>
      <trkpt lat="43.00957" lon="-0.20617">
        <ele>1220</ele>
        <time>2026-08-31T11:22:24.000Z</time>
      </trkpt>
      <trkpt lat="43.00956" lon="-0.20585">
        <ele>1217</ele>
        <time>2026-08-31T11:22:37.000Z</time>
      </trkpt>
      <trkpt lat="43.00956" lon="-0.20554">
        <ele>1215</ele>
        <time>2026-08-31T11:22:51.000Z</time>
      </trkpt>
      <trkpt lat="43.00942" lon="-0.20528">
        <ele>1212</ele>
        <time>2026-08-31T11:23:08.000Z</time>
      </trkpt>
      <trkpt lat="43.00921" lon="-0.20511">
        <ele>1210</ele>
        <time>2026-08-31T11:23:21.000Z</time>
      </trkpt>
      <trkpt lat="43.009" lon="-0.20499">
        <ele>1206</ele>
        <time>2026-08-31T11:23:32.000Z</time>
      </trkpt>
      <trkpt lat="43.00878" lon="-0.20491">
        <ele>1203</ele>
        <time>2026-08-31T11:23:43.000Z</time>
      </trkpt>
      <trkpt lat="43.00855" lon="-0.20493">
        <ele>1199</ele>
        <time>2026-08-31T11:23:57.000Z</time>
      </trkpt>
      <trkpt lat="43.00835" lon="-0.2051">
        <ele>1195</ele>
        <time>2026-08-31T11:24:10.000Z</time>
      </trkpt>
      <trkpt lat="43.00816" lon="-0.20531">
        <ele>1192</ele>
        <time>2026-08-31T11:24:23.000Z</time>
      </trkpt>
      <trkpt lat="43.00798" lon="-0.20552">
        <ele>1188</ele>
        <time>2026-08-31T11:24:34.000Z</time>
      </trkpt>
      <trkpt lat="43.00781" lon="-0.20577">
        <ele>1185</ele>
        <time>2026-08-31T11:24:47.000Z</time>
      </trkpt>
      <trkpt lat="43.00764" lon="-0.20602">
        <ele>1182</ele>
        <time>2026-08-31T11:25:00.000Z</time>
      </trkpt>
      <trkpt lat="43.0075" lon="-0.20627">
        <ele>1179</ele>
        <time>2026-08-31T11:25:11.000Z</time>
      </trkpt>
      <trkpt lat="43.00735" lon="-0.20653">
        <ele>1176</ele>
        <time>2026-08-31T11:25:24.000Z</time>
      </trkpt>
      <trkpt lat="43.00718" lon="-0.20675">
        <ele>1175</ele>
        <time>2026-08-31T11:25:37.000Z</time>
      </trkpt>
      <trkpt lat="43.00697" lon="-0.20692">
        <ele>1172</ele>
        <time>2026-08-31T11:25:51.000Z</time>
      </trkpt>
      <trkpt lat="43.00676" lon="-0.2071">
        <ele>1170</ele>
        <time>2026-08-31T11:26:04.000Z</time>
      </trkpt>
      <trkpt lat="43.00658" lon="-0.2073">
        <ele>1166</ele>
        <time>2026-08-31T11:26:17.000Z</time>
      </trkpt>
      <trkpt lat="43.00642" lon="-0.20744">
        <ele>1163</ele>
        <time>2026-08-31T11:26:30.000Z</time>
      </trkpt>
      <trkpt lat="43.00649" lon="-0.20723">
        <ele>1159</ele>
        <time>2026-08-31T11:27:49.000Z</time>
      </trkpt>
      <trkpt lat="43.00662" lon="-0.20697">
        <ele>1155</ele>
        <time>2026-08-31T11:28:03.000Z</time>
      </trkpt>
      <trkpt lat="43.00676" lon="-0.2067">
        <ele>1152</ele>
        <time>2026-08-31T11:28:35.000Z</time>
      </trkpt>
      <trkpt lat="43.00682" lon="-0.20638">
        <ele>1150</ele>
        <time>2026-08-31T11:28:49.000Z</time>
      </trkpt>
      <trkpt lat="43.00689" lon="-0.20607">
        <ele>1149</ele>
        <time>2026-08-31T11:28:59.000Z</time>
      </trkpt>
      <trkpt lat="43.00699" lon="-0.20577">
        <ele>1148</ele>
        <time>2026-08-31T11:29:12.000Z</time>
      </trkpt>
      <trkpt lat="43.0071" lon="-0.20548">
        <ele>1147</ele>
        <time>2026-08-31T11:29:26.000Z</time>
      </trkpt>
      <trkpt lat="43.00722" lon="-0.20519">
        <ele>1147</ele>
        <time>2026-08-31T11:29:40.000Z</time>
      </trkpt>
      <trkpt lat="43.0074" lon="-0.20497">
        <ele>1147</ele>
        <time>2026-08-31T11:29:54.000Z</time>
      </trkpt>
      <trkpt lat="43.00758" lon="-0.20473">
        <ele>1147</ele>
        <time>2026-08-31T11:30:08.000Z</time>
      </trkpt>
      <trkpt lat="43.00772" lon="-0.20445">
        <ele>1147</ele>
        <time>2026-08-31T11:30:22.000Z</time>
      </trkpt>
      <trkpt lat="43.00785" lon="-0.20414">
        <ele>1146</ele>
        <time>2026-08-31T11:30:38.000Z</time>
      </trkpt>
      <trkpt lat="43.00799" lon="-0.20386">
        <ele>1145</ele>
        <time>2026-08-31T11:30:51.000Z</time>
      </trkpt>
      <trkpt lat="43.00819" lon="-0.20374">
        <ele>1146</ele>
        <time>2026-08-31T11:31:07.000Z</time>
      </trkpt>
      <trkpt lat="43.00842" lon="-0.20378">
        <ele>1144</ele>
        <time>2026-08-31T11:31:23.000Z</time>
      </trkpt>
      <trkpt lat="43.00866" lon="-0.2039">
        <ele>1143</ele>
        <time>2026-08-31T11:31:37.000Z</time>
      </trkpt>
      <trkpt lat="43.0089" lon="-0.20399">
        <ele>1141</ele>
        <time>2026-08-31T11:31:51.000Z</time>
      </trkpt>
      <trkpt lat="43.00918" lon="-0.20414">
        <ele>1140</ele>
        <time>2026-08-31T11:32:02.000Z</time>
      </trkpt>
      <trkpt lat="43.00972" lon="-0.20451">
        <ele>1141</ele>
        <time>2026-08-31T11:32:15.000Z</time>
      </trkpt>
      <trkpt lat="43.01" lon="-0.20462">
        <ele>1141</ele>
        <time>2026-08-31T11:32:18.000Z</time>
      </trkpt>
      <trkpt lat="43.01022" lon="-0.20454">
        <ele>1142</ele>
        <time>2026-08-31T11:32:25.000Z</time>
      </trkpt>
      <trkpt lat="43.01034" lon="-0.20425">
        <ele>1141</ele>
        <time>2026-08-31T11:32:38.000Z</time>
      </trkpt>
      <trkpt lat="43.0103" lon="-0.20391">
        <ele>1140</ele>
        <time>2026-08-31T11:32:47.000Z</time>
      </trkpt>
      <trkpt lat="43.0102" lon="-0.20356">
        <ele>1140</ele>
        <time>2026-08-31T11:32:58.000Z</time>
      </trkpt>
      <trkpt lat="43.00997" lon="-0.20301">
        <ele>1140</ele>
        <time>2026-08-31T11:33:10.000Z</time>
      </trkpt>
      <trkpt lat="43.00978" lon="-0.20271">
        <ele>1140</ele>
        <time>2026-08-31T11:33:14.000Z</time>
      </trkpt>
      <trkpt lat="43.00958" lon="-0.20252">
        <ele>1140</ele>
        <time>2026-08-31T11:33:18.000Z</time>
      </trkpt>
      <trkpt lat="43.00939" lon="-0.20231">
        <ele>1142</ele>
        <time>2026-08-31T11:33:30.000Z</time>
      </trkpt>
      <trkpt lat="43.00922" lon="-0.20208">
        <ele>1143</ele>
        <time>2026-08-31T11:33:40.000Z</time>
      </trkpt>
      <trkpt lat="43.00909" lon="-0.2018">
        <ele>1144</ele>
        <time>2026-08-31T11:33:52.000Z</time>
      </trkpt>
      <trkpt lat="43.00894" lon="-0.20153">
        <ele>1145</ele>
        <time>2026-08-31T11:34:04.000Z</time>
      </trkpt>
      <trkpt lat="43.00881" lon="-0.20124">
        <ele>1143</ele>
        <time>2026-08-31T11:34:12.000Z</time>
      </trkpt>
      <trkpt lat="43.00865" lon="-0.20101">
        <ele>1141</ele>
        <time>2026-08-31T11:34:24.000Z</time>
      </trkpt>
      <trkpt lat="43.0085" lon="-0.20074">
        <ele>1138</ele>
        <time>2026-08-31T11:34:39.000Z</time>
      </trkpt>
      <trkpt lat="43.0084" lon="-0.20042">
        <ele>1136</ele>
        <time>2026-08-31T11:34:56.000Z</time>
      </trkpt>
      <trkpt lat="43.00832" lon="-0.2001">
        <ele>1135</ele>
        <time>2026-08-31T11:35:10.000Z</time>
      </trkpt>
      <trkpt lat="43.00827" lon="-0.19979">
        <ele>1134</ele>
        <time>2026-08-31T11:35:23.000Z</time>
      </trkpt>
      <trkpt lat="43.00825" lon="-0.19948">
        <ele>1134</ele>
        <time>2026-08-31T11:35:35.000Z</time>
      </trkpt>
      <trkpt lat="43.00824" lon="-0.19916">
        <ele>1135</ele>
        <time>2026-08-31T11:35:47.000Z</time>
      </trkpt>
      <trkpt lat="43.00822" lon="-0.19884">
        <ele>1134</ele>
        <time>2026-08-31T11:35:59.000Z</time>
      </trkpt>
      <trkpt lat="43.00818" lon="-0.19851">
        <ele>1133</ele>
        <time>2026-08-31T11:36:12.000Z</time>
      </trkpt>
      <trkpt lat="43.00816" lon="-0.19819">
        <ele>1132</ele>
        <time>2026-08-31T11:36:26.000Z</time>
      </trkpt>
      <trkpt lat="43.00817" lon="-0.19787">
        <ele>1129</ele>
        <time>2026-08-31T11:36:39.000Z</time>
      </trkpt>
      <trkpt lat="43.00822" lon="-0.19757">
        <ele>1128</ele>
        <time>2026-08-31T11:36:53.000Z</time>
      </trkpt>
      <trkpt lat="43.00834" lon="-0.19726">
        <ele>1127</ele>
        <time>2026-08-31T11:37:08.000Z</time>
      </trkpt>
      <trkpt lat="43.00845" lon="-0.19698">
        <ele>1125</ele>
        <time>2026-08-31T11:37:21.000Z</time>
      </trkpt>
      <trkpt lat="43.00861" lon="-0.19675">
        <ele>1125</ele>
        <time>2026-08-31T11:37:33.000Z</time>
      </trkpt>
      <trkpt lat="43.00885" lon="-0.19675">
        <ele>1124</ele>
        <time>2026-08-31T11:37:51.000Z</time>
      </trkpt>
      <trkpt lat="43.00907" lon="-0.19671">
        <ele>1122</ele>
        <time>2026-08-31T11:38:03.000Z</time>
      </trkpt>
      <trkpt lat="43.00928" lon="-0.19648">
        <ele>1120</ele>
        <time>2026-08-31T11:38:15.000Z</time>
      </trkpt>
      <trkpt lat="43.00944" lon="-0.19617">
        <ele>1116</ele>
        <time>2026-08-31T11:38:27.000Z</time>
      </trkpt>
      <trkpt lat="43.00958" lon="-0.19588">
        <ele>1113</ele>
        <time>2026-08-31T11:38:42.000Z</time>
      </trkpt>
      <trkpt lat="43.00972" lon="-0.19562">
        <ele>1110</ele>
        <time>2026-08-31T11:38:57.000Z</time>
      </trkpt>
      <trkpt lat="43.00987" lon="-0.19535">
        <ele>1106</ele>
        <time>2026-08-31T11:39:12.000Z</time>
      </trkpt>
      <trkpt lat="43.00999" lon="-0.19499">
        <ele>1103</ele>
        <time>2026-08-31T11:39:24.000Z</time>
      </trkpt>
      <trkpt lat="43.01" lon="-0.19462">
        <ele>1101</ele>
        <time>2026-08-31T11:39:39.000Z</time>
      </trkpt>
      <trkpt lat="43.00999" lon="-0.19429">
        <ele>1099</ele>
        <time>2026-08-31T11:39:54.000Z</time>
      </trkpt>
      <trkpt lat="43.01001" lon="-0.19398">
        <ele>1097</ele>
        <time>2026-08-31T11:40:06.000Z</time>
      </trkpt>
      <trkpt lat="43.01002" lon="-0.19366">
        <ele>1096</ele>
        <time>2026-08-31T11:40:18.000Z</time>
      </trkpt>
      <trkpt lat="43.01007" lon="-0.19335">
        <ele>1095</ele>
        <time>2026-08-31T11:40:33.000Z</time>
      </trkpt>
      <trkpt lat="43.01018" lon="-0.19307">
        <ele>1094</ele>
        <time>2026-08-31T11:40:48.000Z</time>
      </trkpt>
      <trkpt lat="43.01031" lon="-0.19278">
        <ele>1094</ele>
        <time>2026-08-31T11:41:21.000Z</time>
      </trkpt>
      <trkpt lat="43.01039" lon="-0.19242">
        <ele>1093</ele>
        <time>2026-08-31T11:41:33.000Z</time>
      </trkpt>
      <trkpt lat="43.01046" lon="-0.19207">
        <ele>1092</ele>
        <time>2026-08-31T11:41:47.000Z</time>
      </trkpt>
      <trkpt lat="43.01042" lon="-0.19176">
        <ele>1090</ele>
        <time>2026-08-31T11:41:55.000Z</time>
      </trkpt>
      <trkpt lat="43.01036" lon="-0.19146">
        <ele>1087</ele>
        <time>2026-08-31T11:42:05.000Z</time>
      </trkpt>
      <trkpt lat="43.01026" lon="-0.19118">
        <ele>1085</ele>
        <time>2026-08-31T11:42:20.000Z</time>
      </trkpt>
      <trkpt lat="43.01023" lon="-0.19086">
        <ele>1084</ele>
        <time>2026-08-31T11:42:37.000Z</time>
      </trkpt>
      <trkpt lat="43.01025" lon="-0.19055">
        <ele>1082</ele>
        <time>2026-08-31T11:42:50.000Z</time>
      </trkpt>
      <trkpt lat="43.01027" lon="-0.19023">
        <ele>1081</ele>
        <time>2026-08-31T11:43:05.000Z</time>
      </trkpt>
      <trkpt lat="43.01031" lon="-0.1899">
        <ele>1078</ele>
        <time>2026-08-31T11:43:17.000Z</time>
      </trkpt>
      <trkpt lat="43.01032" lon="-0.18957">
        <ele>1076</ele>
        <time>2026-08-31T11:43:31.000Z</time>
      </trkpt>
      <trkpt lat="43.01036" lon="-0.18924">
        <ele>1074</ele>
        <time>2026-08-31T11:43:47.000Z</time>
      </trkpt>
      <trkpt lat="43.01042" lon="-0.18892">
        <ele>1072</ele>
        <time>2026-08-31T11:44:02.000Z</time>
      </trkpt>
      <trkpt lat="43.01047" lon="-0.18862">
        <ele>1071</ele>
        <time>2026-08-31T11:44:16.000Z</time>
      </trkpt>
      <trkpt lat="43.01039" lon="-0.18834">
        <ele>1070</ele>
        <time>2026-08-31T11:44:55.000Z</time>
      </trkpt>
      <trkpt lat="43.01046" lon="-0.18805">
        <ele>1070</ele>
        <time>2026-08-31T11:45:15.000Z</time>
      </trkpt>
      <trkpt lat="43.01055" lon="-0.18774">
        <ele>1067</ele>
        <time>2026-08-31T11:45:28.000Z</time>
      </trkpt>
      <trkpt lat="43.01061" lon="-0.18743">
        <ele>1064</ele>
        <time>2026-08-31T11:45:40.000Z</time>
      </trkpt>
      <trkpt lat="43.01062" lon="-0.18707">
        <ele>1061</ele>
        <time>2026-08-31T11:45:52.000Z</time>
      </trkpt>
      <trkpt lat="43.01058" lon="-0.18661">
        <ele>1057</ele>
        <time>2026-08-31T11:46:04.000Z</time>
      </trkpt>
      <trkpt lat="43.01061" lon="-0.18548">
        <ele>1057</ele>
        <time>2026-08-31T11:47:12.000Z</time>
      </trkpt>
      <trkpt lat="43.01073" lon="-0.18506">
        <ele>1056</ele>
        <time>2026-08-31T11:47:27.000Z</time>
      </trkpt>
      <trkpt lat="43.01089" lon="-0.18481">
        <ele>1056</ele>
        <time>2026-08-31T11:47:41.000Z</time>
      </trkpt>
      <trkpt lat="43.01106" lon="-0.18459">
        <ele>1056</ele>
        <time>2026-08-31T11:47:56.000Z</time>
      </trkpt>
      <trkpt lat="43.01126" lon="-0.18446">
        <ele>1055</ele>
        <time>2026-08-31T11:48:09.000Z</time>
      </trkpt>
      <trkpt lat="43.01144" lon="-0.18427">
        <ele>1054</ele>
        <time>2026-08-31T11:48:22.000Z</time>
      </trkpt>
      <trkpt lat="43.01161" lon="-0.18407">
        <ele>1053</ele>
        <time>2026-08-31T11:48:36.000Z</time>
      </trkpt>
      <trkpt lat="43.01178" lon="-0.18387">
        <ele>1052</ele>
        <time>2026-08-31T11:48:50.000Z</time>
      </trkpt>
      <trkpt lat="43.01196" lon="-0.18364">
        <ele>1050</ele>
        <time>2026-08-31T11:49:04.000Z</time>
      </trkpt>
      <trkpt lat="43.01212" lon="-0.18342">
        <ele>1048</ele>
        <time>2026-08-31T11:49:17.000Z</time>
      </trkpt>
      <trkpt lat="43.01229" lon="-0.18321">
        <ele>1046</ele>
        <time>2026-08-31T11:49:31.000Z</time>
      </trkpt>
      <trkpt lat="43.01244" lon="-0.18294">
        <ele>1044</ele>
        <time>2026-08-31T11:49:42.000Z</time>
      </trkpt>
      <trkpt lat="43.01254" lon="-0.18259">
        <ele>1042</ele>
        <time>2026-08-31T11:49:54.000Z</time>
      </trkpt>
      <trkpt lat="43.01258" lon="-0.18225">
        <ele>1039</ele>
        <time>2026-08-31T11:50:06.000Z</time>
      </trkpt>
      <trkpt lat="43.01256" lon="-0.18191">
        <ele>1037</ele>
        <time>2026-08-31T11:50:21.000Z</time>
      </trkpt>
      <trkpt lat="43.01255" lon="-0.1816">
        <ele>1035</ele>
        <time>2026-08-31T11:50:33.000Z</time>
      </trkpt>
      <trkpt lat="43.01264" lon="-0.18127">
        <ele>1033</ele>
        <time>2026-08-31T11:50:51.000Z</time>
      </trkpt>
      <trkpt lat="43.0127" lon="-0.18096">
        <ele>1031</ele>
        <time>2026-08-31T11:51:03.000Z</time>
      </trkpt>
      <trkpt lat="43.01277" lon="-0.18064">
        <ele>1030</ele>
        <time>2026-08-31T11:51:18.000Z</time>
      </trkpt>
      <trkpt lat="43.0128" lon="-0.18032">
        <ele>1027</ele>
        <time>2026-08-31T11:51:35.000Z</time>
      </trkpt>
      <trkpt lat="43.01278" lon="-0.18001">
        <ele>1024</ele>
        <time>2026-08-31T11:51:48.000Z</time>
      </trkpt>
      <trkpt lat="43.01282" lon="-0.17968">
        <ele>1021</ele>
        <time>2026-08-31T11:52:02.000Z</time>
      </trkpt>
      <trkpt lat="43.01287" lon="-0.17936">
        <ele>1019</ele>
        <time>2026-08-31T11:52:15.000Z</time>
      </trkpt>
      <trkpt lat="43.01294" lon="-0.17902">
        <ele>1017</ele>
        <time>2026-08-31T11:52:30.000Z</time>
      </trkpt>
      <trkpt lat="43.01298" lon="-0.17864">
        <ele>1015</ele>
        <time>2026-08-31T11:52:46.000Z</time>
      </trkpt>
      <trkpt lat="43.01306" lon="-0.17833">
        <ele>1013</ele>
        <time>2026-08-31T11:53:01.000Z</time>
      </trkpt>
      <trkpt lat="43.01313" lon="-0.178">
        <ele>1011</ele>
        <time>2026-08-31T11:53:16.000Z</time>
      </trkpt>
      <trkpt lat="43.01323" lon="-0.17771">
        <ele>1008</ele>
        <time>2026-08-31T11:53:31.000Z</time>
      </trkpt>
      <trkpt lat="43.01332" lon="-0.17735">
        <ele>1007</ele>
        <time>2026-08-31T11:53:46.000Z</time>
      </trkpt>
      <trkpt lat="43.01336" lon="-0.17701">
        <ele>1007</ele>
        <time>2026-08-31T11:54:01.000Z</time>
      </trkpt>
      <trkpt lat="43.01329" lon="-0.17669">
        <ele>1006</ele>
        <time>2026-08-31T11:54:16.000Z</time>
      </trkpt>
      <trkpt lat="43.01323" lon="-0.17638">
        <ele>1006</ele>
        <time>2026-08-31T11:54:31.000Z</time>
      </trkpt>
      <trkpt lat="43.01324" lon="-0.17602">
        <ele>1005</ele>
        <time>2026-08-31T11:54:49.000Z</time>
      </trkpt>
      <trkpt lat="43.01322" lon="-0.17566">
        <ele>1004</ele>
        <time>2026-08-31T11:55:04.000Z</time>
      </trkpt>
      <trkpt lat="43.01324" lon="-0.17534">
        <ele>1003</ele>
        <time>2026-08-31T11:55:16.000Z</time>
      </trkpt>
      <trkpt lat="43.01328" lon="-0.17499">
        <ele>1002</ele>
        <time>2026-08-31T11:55:31.000Z</time>
      </trkpt>
      <trkpt lat="43.01323" lon="-0.17465">
        <ele>1001</ele>
        <time>2026-08-31T11:55:46.000Z</time>
      </trkpt>
      <trkpt lat="43.01312" lon="-0.17422">
        <ele>1001</ele>
        <time>2026-08-31T11:55:58.000Z</time>
      </trkpt>
      <trkpt lat="43.01313" lon="-0.17323">
        <ele>1000</ele>
        <time>2026-08-31T11:56:49.000Z</time>
      </trkpt>
      <trkpt lat="43.01313" lon="-0.17279">
        <ele>1000</ele>
        <time>2026-08-31T11:57:04.000Z</time>
      </trkpt>
      <trkpt lat="43.01313" lon="-0.17245">
        <ele>1000</ele>
        <time>2026-08-31T11:57:19.000Z</time>
      </trkpt>
      <trkpt lat="43.01314" lon="-0.1721">
        <ele>1000</ele>
        <time>2026-08-31T11:57:34.000Z</time>
      </trkpt>
      <trkpt lat="43.01322" lon="-0.17181">
        <ele>1000</ele>
        <time>2026-08-31T11:57:49.000Z</time>
      </trkpt>
      <trkpt lat="43.01344" lon="-0.17174">
        <ele>1000</ele>
        <time>2026-08-31T11:58:10.000Z</time>
      </trkpt>
      <trkpt lat="43.01367" lon="-0.17179">
        <ele>998</ele>
        <time>2026-08-31T11:58:25.000Z</time>
      </trkpt>
      <trkpt lat="43.01389" lon="-0.17186">
        <ele>997</ele>
        <time>2026-08-31T11:58:40.000Z</time>
      </trkpt>
      <trkpt lat="43.01411" lon="-0.17199">
        <ele>996</ele>
        <time>2026-08-31T11:58:55.000Z</time>
      </trkpt>
      <trkpt lat="43.01431" lon="-0.17188">
        <ele>995</ele>
        <time>2026-08-31T11:59:07.000Z</time>
      </trkpt>
      <trkpt lat="43.01444" lon="-0.1716">
        <ele>994</ele>
        <time>2026-08-31T11:59:20.000Z</time>
      </trkpt>
      <trkpt lat="43.01454" lon="-0.17127">
        <ele>994</ele>
        <time>2026-08-31T11:59:35.000Z</time>
      </trkpt>
      <trkpt lat="43.01464" lon="-0.17098">
        <ele>994</ele>
        <time>2026-08-31T11:59:47.000Z</time>
      </trkpt>
      <trkpt lat="43.0147" lon="-0.17066">
        <ele>995</ele>
        <time>2026-08-31T11:59:59.000Z</time>
      </trkpt>
      <trkpt lat="43.0147" lon="-0.1703">
        <ele>995</ele>
        <time>2026-08-31T12:00:14.000Z</time>
      </trkpt>
      <trkpt lat="43.01467" lon="-0.16995">
        <ele>996</ele>
        <time>2026-08-31T12:00:29.000Z</time>
      </trkpt>
      <trkpt lat="43.01478" lon="-0.16968">
        <ele>995</ele>
        <time>2026-08-31T12:00:44.000Z</time>
      </trkpt>
      <trkpt lat="43.01497" lon="-0.16948">
        <ele>995</ele>
        <time>2026-08-31T12:01:02.000Z</time>
      </trkpt>
      <trkpt lat="43.01519" lon="-0.16932">
        <ele>994</ele>
        <time>2026-08-31T12:01:17.000Z</time>
      </trkpt>
      <trkpt lat="43.01539" lon="-0.16908">
        <ele>993</ele>
        <time>2026-08-31T12:01:32.000Z</time>
      </trkpt>
      <trkpt lat="43.01552" lon="-0.16882">
        <ele>992</ele>
        <time>2026-08-31T12:01:44.000Z</time>
      </trkpt>
      <trkpt lat="43.01553" lon="-0.16851">
        <ele>991</ele>
        <time>2026-08-31T12:01:56.000Z</time>
      </trkpt>
      <trkpt lat="43.01555" lon="-0.1682">
        <ele>990</ele>
        <time>2026-08-31T12:02:08.000Z</time>
      </trkpt>
      <trkpt lat="43.0156" lon="-0.16787">
        <ele>988</ele>
        <time>2026-08-31T12:02:23.000Z</time>
      </trkpt>
      <trkpt lat="43.01561" lon="-0.16754">
        <ele>988</ele>
        <time>2026-08-31T12:02:35.000Z</time>
      </trkpt>
      <trkpt lat="43.01564" lon="-0.16719">
        <ele>987</ele>
        <time>2026-08-31T12:02:50.000Z</time>
      </trkpt>
      <trkpt lat="43.01567" lon="-0.16688">
        <ele>987</ele>
        <time>2026-08-31T12:03:02.000Z</time>
      </trkpt>
      <trkpt lat="43.01569" lon="-0.16656">
        <ele>987</ele>
        <time>2026-08-31T12:03:14.000Z</time>
      </trkpt>
      <trkpt lat="43.01569" lon="-0.16619">
        <ele>987</ele>
        <time>2026-08-31T12:03:29.000Z</time>
      </trkpt>
      <trkpt lat="43.01564" lon="-0.16584">
        <ele>987</ele>
        <time>2026-08-31T12:03:44.000Z</time>
      </trkpt>
      <trkpt lat="43.01551" lon="-0.16552">
        <ele>987</ele>
        <time>2026-08-31T12:03:59.000Z</time>
      </trkpt>
      <trkpt lat="43.01532" lon="-0.16528">
        <ele>986</ele>
        <time>2026-08-31T12:04:11.000Z</time>
      </trkpt>
      <trkpt lat="43.01518" lon="-0.165">
        <ele>987</ele>
        <time>2026-08-31T12:04:26.000Z</time>
      </trkpt>
      <trkpt lat="43.01503" lon="-0.16472">
        <ele>987</ele>
        <time>2026-08-31T12:04:41.000Z</time>
      </trkpt>
      <trkpt lat="43.01495" lon="-0.1644">
        <ele>987</ele>
        <time>2026-08-31T12:04:56.000Z</time>
      </trkpt>
      <trkpt lat="43.01487" lon="-0.1641">
        <ele>987</ele>
        <time>2026-08-31T12:05:08.000Z</time>
      </trkpt>
      <trkpt lat="43.01481" lon="-0.16377">
        <ele>987</ele>
        <time>2026-08-31T12:05:21.000Z</time>
      </trkpt>
      <trkpt lat="43.01473" lon="-0.16343">
        <ele>986</ele>
        <time>2026-08-31T12:05:31.000Z</time>
      </trkpt>
      <trkpt lat="43.01465" lon="-0.16309">
        <ele>987</ele>
        <time>2026-08-31T12:05:43.000Z</time>
      </trkpt>
      <trkpt lat="43.01459" lon="-0.16275">
        <ele>988</ele>
        <time>2026-08-31T12:05:56.000Z</time>
      </trkpt>
      <trkpt lat="43.01455" lon="-0.16243">
        <ele>990</ele>
        <time>2026-08-31T12:06:11.000Z</time>
      </trkpt>
      <trkpt lat="43.01436" lon="-0.16237">
        <ele>991</ele>
        <time>2026-08-31T12:06:30.000Z</time>
      </trkpt>
      <trkpt lat="43.01417" lon="-0.16251">
        <ele>993</ele>
        <time>2026-08-31T12:06:39.000Z</time>
      </trkpt>
      <trkpt lat="43.01398" lon="-0.16268">
        <ele>995</ele>
        <time>2026-08-31T12:06:49.000Z</time>
      </trkpt>
      <trkpt lat="43.01375" lon="-0.16277">
        <ele>996</ele>
        <time>2026-08-31T12:07:01.000Z</time>
      </trkpt>
      <trkpt lat="43.01352" lon="-0.16275">
        <ele>998</ele>
        <time>2026-08-31T12:07:15.000Z</time>
      </trkpt>
      <trkpt lat="43.01329" lon="-0.16265">
        <ele>1000</ele>
        <time>2026-08-31T12:07:29.000Z</time>
      </trkpt>
      <trkpt lat="43.01306" lon="-0.16252">
        <ele>1002</ele>
        <time>2026-08-31T12:07:41.000Z</time>
      </trkpt>
      <trkpt lat="43.01283" lon="-0.16238">
        <ele>1004</ele>
        <time>2026-08-31T12:07:53.000Z</time>
      </trkpt>
      <trkpt lat="43.01259" lon="-0.16223">
        <ele>1006</ele>
        <time>2026-08-31T12:08:03.000Z</time>
      </trkpt>
      <trkpt lat="43.01236" lon="-0.16205">
        <ele>1009</ele>
        <time>2026-08-31T12:08:15.000Z</time>
      </trkpt>
      <trkpt lat="43.01213" lon="-0.16187">
        <ele>1011</ele>
        <time>2026-08-31T12:08:27.000Z</time>
      </trkpt>
      <trkpt lat="43.01192" lon="-0.16168">
        <ele>1013</ele>
        <time>2026-08-31T12:08:37.000Z</time>
      </trkpt>
      <trkpt lat="43.01171" lon="-0.1615">
        <ele>1015</ele>
        <time>2026-08-31T12:08:49.000Z</time>
      </trkpt>
      <trkpt lat="43.01155" lon="-0.16129">
        <ele>1017</ele>
        <time>2026-08-31T12:09:01.000Z</time>
      </trkpt>
      <trkpt lat="43.01139" lon="-0.16106">
        <ele>1020</ele>
        <time>2026-08-31T12:09:13.000Z</time>
      </trkpt>
      <trkpt lat="43.0112" lon="-0.16089">
        <ele>1022</ele>
        <time>2026-08-31T12:09:24.000Z</time>
      </trkpt>
      <trkpt lat="43.01099" lon="-0.16072">
        <ele>1024</ele>
        <time>2026-08-31T12:09:36.000Z</time>
      </trkpt>
      <trkpt lat="43.0108" lon="-0.1605">
        <ele>1025</ele>
        <time>2026-08-31T12:09:48.000Z</time>
      </trkpt>
      <trkpt lat="43.01063" lon="-0.16025">
        <ele>1025</ele>
        <time>2026-08-31T12:09:59.000Z</time>
      </trkpt>
      <trkpt lat="43.01045" lon="-0.16002">
        <ele>1027</ele>
        <time>2026-08-31T12:10:11.000Z</time>
      </trkpt>
      <trkpt lat="43.01028" lon="-0.15976">
        <ele>1027</ele>
        <time>2026-08-31T12:10:23.000Z</time>
      </trkpt>
      <trkpt lat="43.01007" lon="-0.15973">
        <ele>1028</ele>
        <time>2026-08-31T12:11:28.000Z</time>
      </trkpt>
      <trkpt lat="43.01001" lon="-0.15987">
        <ele>1028</ele>
        <time>2026-08-31T12:21:33.000Z</time>
      </trkpt>
      <trkpt lat="43.01023" lon="-0.15953">
        <ele>1027</ele>
        <time>2026-08-31T12:46:18.000Z</time>
      </trkpt>
      <trkpt lat="43.01031" lon="-0.15918">
        <ele>1027</ele>
        <time>2026-08-31T12:46:37.000Z</time>
      </trkpt>
      <trkpt lat="43.0103" lon="-0.15886">
        <ele>1026</ele>
        <time>2026-08-31T12:46:51.000Z</time>
      </trkpt>
      <trkpt lat="43.01023" lon="-0.15852">
        <ele>1025</ele>
        <time>2026-08-31T12:47:06.000Z</time>
      </trkpt>
      <trkpt lat="43.01018" lon="-0.15816">
        <ele>1023</ele>
        <time>2026-08-31T12:47:21.000Z</time>
      </trkpt>
      <trkpt lat="43.01015" lon="-0.15782">
        <ele>1022</ele>
        <time>2026-08-31T12:47:36.000Z</time>
      </trkpt>
      <trkpt lat="43.01012" lon="-0.15749">
        <ele>1022</ele>
        <time>2026-08-31T12:47:48.000Z</time>
      </trkpt>
      <trkpt lat="43.01007" lon="-0.15714">
        <ele>1023</ele>
        <time>2026-08-31T12:48:03.000Z</time>
      </trkpt>
      <trkpt lat="43.01004" lon="-0.15681">
        <ele>1023</ele>
        <time>2026-08-31T12:48:15.000Z</time>
      </trkpt>
      <trkpt lat="43.01004" lon="-0.15647">
        <ele>1022</ele>
        <time>2026-08-31T12:48:30.000Z</time>
      </trkpt>
      <trkpt lat="43.01003" lon="-0.15612">
        <ele>1021</ele>
        <time>2026-08-31T12:48:45.000Z</time>
      </trkpt>
      <trkpt lat="43.01001" lon="-0.15575">
        <ele>1020</ele>
        <time>2026-08-31T12:49:00.000Z</time>
      </trkpt>
      <trkpt lat="43.00998" lon="-0.15542">
        <ele>1019</ele>
        <time>2026-08-31T12:49:12.000Z</time>
      </trkpt>
      <trkpt lat="43.00993" lon="-0.1551">
        <ele>1019</ele>
        <time>2026-08-31T12:49:25.000Z</time>
      </trkpt>
      <trkpt lat="43.00989" lon="-0.15477">
        <ele>1019</ele>
        <time>2026-08-31T12:49:37.000Z</time>
      </trkpt>
      <trkpt lat="43.00984" lon="-0.15446">
        <ele>1018</ele>
        <time>2026-08-31T12:49:49.000Z</time>
      </trkpt>
      <trkpt lat="43.00985" lon="-0.15412">
        <ele>1018</ele>
        <time>2026-08-31T12:50:04.000Z</time>
      </trkpt>
      <trkpt lat="43.00986" lon="-0.1538">
        <ele>1017</ele>
        <time>2026-08-31T12:50:16.000Z</time>
      </trkpt>
      <trkpt lat="43.00989" lon="-0.15348">
        <ele>1017</ele>
        <time>2026-08-31T12:50:28.000Z</time>
      </trkpt>
      <trkpt lat="43.00994" lon="-0.15314">
        <ele>1016</ele>
        <time>2026-08-31T12:50:43.000Z</time>
      </trkpt>
      <trkpt lat="43.01001" lon="-0.15285">
        <ele>1015</ele>
        <time>2026-08-31T12:50:55.000Z</time>
      </trkpt>
      <trkpt lat="43.0101" lon="-0.15256">
        <ele>1015</ele>
        <time>2026-08-31T12:51:07.000Z</time>
      </trkpt>
      <trkpt lat="43.01016" lon="-0.15227">
        <ele>1014</ele>
        <time>2026-08-31T12:51:19.000Z</time>
      </trkpt>
      <trkpt lat="43.01027" lon="-0.15199">
        <ele>1014</ele>
        <time>2026-08-31T12:51:34.000Z</time>
      </trkpt>
      <trkpt lat="43.01043" lon="-0.1517">
        <ele>1014</ele>
        <time>2026-08-31T12:51:49.000Z</time>
      </trkpt>
      <trkpt lat="43.01059" lon="-0.15141">
        <ele>1014</ele>
        <time>2026-08-31T12:52:04.000Z</time>
      </trkpt>
      <trkpt lat="43.01077" lon="-0.1512">
        <ele>1013</ele>
        <time>2026-08-31T12:52:19.000Z</time>
      </trkpt>
      <trkpt lat="43.01097" lon="-0.15101">
        <ele>1013</ele>
        <time>2026-08-31T12:52:34.000Z</time>
      </trkpt>
      <trkpt lat="43.01115" lon="-0.15079">
        <ele>1013</ele>
        <time>2026-08-31T12:52:49.000Z</time>
      </trkpt>
      <trkpt lat="43.01131" lon="-0.15055">
        <ele>1012</ele>
        <time>2026-08-31T12:53:04.000Z</time>
      </trkpt>
      <trkpt lat="43.01145" lon="-0.15031">
        <ele>1011</ele>
        <time>2026-08-31T12:53:18.000Z</time>
      </trkpt>
      <trkpt lat="43.01161" lon="-0.15006">
        <ele>1011</ele>
        <time>2026-08-31T12:53:33.000Z</time>
      </trkpt>
      <trkpt lat="43.01177" lon="-0.1498">
        <ele>1010</ele>
        <time>2026-08-31T12:53:48.000Z</time>
      </trkpt>
      <trkpt lat="43.01189" lon="-0.14951">
        <ele>1009</ele>
        <time>2026-08-31T12:54:01.000Z</time>
      </trkpt>
      <trkpt lat="43.01204" lon="-0.14925">
        <ele>1009</ele>
        <time>2026-08-31T12:54:15.000Z</time>
      </trkpt>
      <trkpt lat="43.01219" lon="-0.14897">
        <ele>1008</ele>
        <time>2026-08-31T12:54:25.000Z</time>
      </trkpt>
      <trkpt lat="43.0123" lon="-0.14864">
        <ele>1006</ele>
        <time>2026-08-31T12:54:40.000Z</time>
      </trkpt>
      <trkpt lat="43.01236" lon="-0.14829">
        <ele>1005</ele>
        <time>2026-08-31T12:54:55.000Z</time>
      </trkpt>
      <trkpt lat="43.01241" lon="-0.14794">
        <ele>1004</ele>
        <time>2026-08-31T12:55:10.000Z</time>
      </trkpt>
      <trkpt lat="43.01248" lon="-0.14761">
        <ele>1002</ele>
        <time>2026-08-31T12:55:27.000Z</time>
      </trkpt>
      <trkpt lat="43.01255" lon="-0.14727">
        <ele>1001</ele>
        <time>2026-08-31T12:55:42.000Z</time>
      </trkpt>
      <trkpt lat="43.0126" lon="-0.14697">
        <ele>1000</ele>
        <time>2026-08-31T12:55:54.000Z</time>
      </trkpt>
      <trkpt lat="43.01273" lon="-0.1467">
        <ele>999</ele>
        <time>2026-08-31T12:56:10.000Z</time>
      </trkpt>
      <trkpt lat="43.01281" lon="-0.1464">
        <ele>998</ele>
        <time>2026-08-31T12:56:24.000Z</time>
      </trkpt>
      <trkpt lat="43.0129" lon="-0.14611">
        <ele>997</ele>
        <time>2026-08-31T12:56:38.000Z</time>
      </trkpt>
      <trkpt lat="43.01297" lon="-0.14579">
        <ele>996</ele>
        <time>2026-08-31T12:56:52.000Z</time>
      </trkpt>
      <trkpt lat="43.01301" lon="-0.14547">
        <ele>995</ele>
        <time>2026-08-31T12:57:04.000Z</time>
      </trkpt>
      <trkpt lat="43.01303" lon="-0.14513">
        <ele>994</ele>
        <time>2026-08-31T12:57:18.000Z</time>
      </trkpt>
      <trkpt lat="43.01303" lon="-0.14479">
        <ele>994</ele>
        <time>2026-08-31T12:57:33.000Z</time>
      </trkpt>
      <trkpt lat="43.01305" lon="-0.14447">
        <ele>992</ele>
        <time>2026-08-31T12:57:47.000Z</time>
      </trkpt>
      <trkpt lat="43.013" lon="-0.14413">
        <ele>992</ele>
        <time>2026-08-31T12:57:59.000Z</time>
      </trkpt>
      <trkpt lat="43.01301" lon="-0.14381">
        <ele>991</ele>
        <time>2026-08-31T12:58:13.000Z</time>
      </trkpt>
      <trkpt lat="43.01311" lon="-0.14355">
        <ele>990</ele>
        <time>2026-08-31T12:58:25.000Z</time>
      </trkpt>
      <trkpt lat="43.01313" lon="-0.14325">
        <ele>989</ele>
        <time>2026-08-31T12:58:42.000Z</time>
      </trkpt>
      <trkpt lat="43.01318" lon="-0.14291">
        <ele>988</ele>
        <time>2026-08-31T12:58:54.000Z</time>
      </trkpt>
      <trkpt lat="43.01325" lon="-0.14257">
        <ele>987</ele>
        <time>2026-08-31T12:59:06.000Z</time>
      </trkpt>
      <trkpt lat="43.01329" lon="-0.14223">
        <ele>985</ele>
        <time>2026-08-31T12:59:20.000Z</time>
      </trkpt>
      <trkpt lat="43.01331" lon="-0.14188">
        <ele>985</ele>
        <time>2026-08-31T12:59:30.000Z</time>
      </trkpt>
      <trkpt lat="43.01329" lon="-0.14154">
        <ele>984</ele>
        <time>2026-08-31T12:59:42.000Z</time>
      </trkpt>
      <trkpt lat="43.01322" lon="-0.14119">
        <ele>984</ele>
        <time>2026-08-31T12:59:59.000Z</time>
      </trkpt>
      <trkpt lat="43.01317" lon="-0.14086">
        <ele>984</ele>
        <time>2026-08-31T13:00:13.000Z</time>
      </trkpt>
      <trkpt lat="43.01313" lon="-0.14054">
        <ele>984</ele>
        <time>2026-08-31T13:00:29.000Z</time>
      </trkpt>
      <trkpt lat="43.01299" lon="-0.14025">
        <ele>984</ele>
        <time>2026-08-31T13:00:43.000Z</time>
      </trkpt>
      <trkpt lat="43.01284" lon="-0.14002">
        <ele>984</ele>
        <time>2026-08-31T13:00:55.000Z</time>
      </trkpt>
      <trkpt lat="43.01269" lon="-0.13976">
        <ele>984</ele>
        <time>2026-08-31T13:01:08.000Z</time>
      </trkpt>
      <trkpt lat="43.01253" lon="-0.1395">
        <ele>983</ele>
        <time>2026-08-31T13:01:22.000Z</time>
      </trkpt>
      <trkpt lat="43.01238" lon="-0.13925">
        <ele>981</ele>
        <time>2026-08-31T13:01:36.000Z</time>
      </trkpt>
      <trkpt lat="43.01222" lon="-0.13897">
        <ele>979</ele>
        <time>2026-08-31T13:01:49.000Z</time>
      </trkpt>
      <trkpt lat="43.01208" lon="-0.13869">
        <ele>971</ele>
        <time>2026-08-31T13:02:01.000Z</time>
      </trkpt>
      <trkpt lat="43.01193" lon="-0.1384">
        <ele>963</ele>
        <time>2026-08-31T13:02:14.000Z</time>
      </trkpt>
      <trkpt lat="43.01177" lon="-0.13815">
        <ele>956</ele>
        <time>2026-08-31T13:02:24.000Z</time>
      </trkpt>
      <trkpt lat="43.01167" lon="-0.13785">
        <ele>950</ele>
        <time>2026-08-31T13:02:34.000Z</time>
      </trkpt>
      <trkpt lat="43.01149" lon="-0.13761">
        <ele>949</ele>
        <time>2026-08-31T13:03:32.000Z</time>
      </trkpt>
      <trkpt lat="43.01127" lon="-0.13742">
        <ele>950</ele>
        <time>2026-08-31T13:03:42.000Z</time>
      </trkpt>
      <trkpt lat="43.01105" lon="-0.1372">
        <ele>953</ele>
        <time>2026-08-31T13:03:53.000Z</time>
      </trkpt>
      <trkpt lat="43.01078" lon="-0.13691">
        <ele>956</ele>
        <time>2026-08-31T13:04:05.000Z</time>
      </trkpt>
      <trkpt lat="43.01057" lon="-0.13667">
        <ele>962</ele>
        <time>2026-08-31T13:04:13.000Z</time>
      </trkpt>
      <trkpt lat="43.01034" lon="-0.13648">
        <ele>968</ele>
        <time>2026-08-31T13:04:21.000Z</time>
      </trkpt>
      <trkpt lat="43.01012" lon="-0.13632">
        <ele>974</ele>
        <time>2026-08-31T13:04:27.000Z</time>
      </trkpt>
      <trkpt lat="43.0098" lon="-0.13616">
        <ele>980</ele>
        <time>2026-08-31T13:04:35.000Z</time>
      </trkpt>
      <trkpt lat="43.00953" lon="-0.1361">
        <ele>985</ele>
        <time>2026-08-31T13:04:40.000Z</time>
      </trkpt>
      <trkpt lat="43.0093" lon="-0.13606">
        <ele>989</ele>
        <time>2026-08-31T13:04:48.000Z</time>
      </trkpt>
      <trkpt lat="43.00907" lon="-0.13602">
        <ele>992</ele>
        <time>2026-08-31T13:04:59.000Z</time>
      </trkpt>
      <trkpt lat="43.00882" lon="-0.13601">
        <ele>995</ele>
        <time>2026-08-31T13:05:13.000Z</time>
      </trkpt>
      <trkpt lat="43.00857" lon="-0.13602">
        <ele>997</ele>
        <time>2026-08-31T13:05:25.000Z</time>
      </trkpt>
      <trkpt lat="43.00832" lon="-0.13605">
        <ele>999</ele>
        <time>2026-08-31T13:05:37.000Z</time>
      </trkpt>
      <trkpt lat="43.00808" lon="-0.13609">
        <ele>1000</ele>
        <time>2026-08-31T13:05:51.000Z</time>
      </trkpt>
      <trkpt lat="43.00784" lon="-0.13614">
        <ele>999</ele>
        <time>2026-08-31T13:06:05.000Z</time>
      </trkpt>
      <trkpt lat="43.00761" lon="-0.13616">
        <ele>998</ele>
        <time>2026-08-31T13:06:17.000Z</time>
      </trkpt>
      <trkpt lat="43.00739" lon="-0.1361">
        <ele>996</ele>
        <time>2026-08-31T13:06:29.000Z</time>
      </trkpt>
      <trkpt lat="43.00716" lon="-0.13604">
        <ele>994</ele>
        <time>2026-08-31T13:06:41.000Z</time>
      </trkpt>
      <trkpt lat="43.00691" lon="-0.13593">
        <ele>993</ele>
        <time>2026-08-31T13:06:53.000Z</time>
      </trkpt>
      <trkpt lat="43.00645" lon="-0.13561">
        <ele>992</ele>
        <time>2026-08-31T13:07:04.000Z</time>
      </trkpt>
      <trkpt lat="43.00594" lon="-0.13526">
        <ele>992</ele>
        <time>2026-08-31T13:07:09.000Z</time>
      </trkpt>
      <trkpt lat="43.00562" lon="-0.13502">
        <ele>992</ele>
        <time>2026-08-31T13:07:15.000Z</time>
      </trkpt>
      <trkpt lat="43.00538" lon="-0.13487">
        <ele>993</ele>
        <time>2026-08-31T13:07:21.000Z</time>
      </trkpt>
      <trkpt lat="43.00517" lon="-0.13472">
        <ele>993</ele>
        <time>2026-08-31T13:07:35.000Z</time>
      </trkpt>
      <trkpt lat="43.00498" lon="-0.13454">
        <ele>993</ele>
        <time>2026-08-31T13:07:48.000Z</time>
      </trkpt>
      <trkpt lat="43.00478" lon="-0.13439">
        <ele>992</ele>
        <time>2026-08-31T13:08:00.000Z</time>
      </trkpt>
      <trkpt lat="43.00453" lon="-0.13434">
        <ele>992</ele>
        <time>2026-08-31T13:08:14.000Z</time>
      </trkpt>
      <trkpt lat="43.00431" lon="-0.1344">
        <ele>992</ele>
        <time>2026-08-31T13:15:42.000Z</time>
      </trkpt>
      <trkpt lat="43.00414" lon="-0.13442">
        <ele>992</ele>
        <time>2026-08-31T13:17:14.000Z</time>
      </trkpt>
      <trkpt lat="43.00425" lon="-0.13437">
        <ele>992</ele>
        <time>2026-08-31T13:17:44.000Z</time>
      </trkpt>
      <trkpt lat="43.00406" lon="-0.13436">
        <ele>992</ele>
        <time>2026-08-31T13:18:14.000Z</time>
      </trkpt>
      <trkpt lat="43.00384" lon="-0.13429">
        <ele>992</ele>
        <time>2026-08-31T13:18:29.000Z</time>
      </trkpt>
      <trkpt lat="43.00363" lon="-0.13414">
        <ele>992</ele>
        <time>2026-08-31T13:18:43.000Z</time>
      </trkpt>
      <trkpt lat="43.00343" lon="-0.13398">
        <ele>992</ele>
        <time>2026-08-31T13:18:57.000Z</time>
      </trkpt>
      <trkpt lat="43.00326" lon="-0.13377">
        <ele>991</ele>
        <time>2026-08-31T13:19:11.000Z</time>
      </trkpt>
      <trkpt lat="43.00313" lon="-0.13348">
        <ele>990</ele>
        <time>2026-08-31T13:19:28.000Z</time>
      </trkpt>
      <trkpt lat="43.00301" lon="-0.13321">
        <ele>989</ele>
        <time>2026-08-31T13:19:42.000Z</time>
      </trkpt>
      <trkpt lat="43.00287" lon="-0.13297">
        <ele>988</ele>
        <time>2026-08-31T13:19:56.000Z</time>
      </trkpt>
      <trkpt lat="43.00277" lon="-0.13269">
        <ele>988</ele>
        <time>2026-08-31T13:20:09.000Z</time>
      </trkpt>
      <trkpt lat="43.00269" lon="-0.13241">
        <ele>987</ele>
        <time>2026-08-31T13:20:24.000Z</time>
      </trkpt>
      <trkpt lat="43.00253" lon="-0.13221">
        <ele>987</ele>
        <time>2026-08-31T13:20:38.000Z</time>
      </trkpt>
      <trkpt lat="43.00227" lon="-0.13222">
        <ele>986</ele>
        <time>2026-08-31T13:20:54.000Z</time>
      </trkpt>
      <trkpt lat="43.00201" lon="-0.13223">
        <ele>985</ele>
        <time>2026-08-31T13:21:10.000Z</time>
      </trkpt>
      <trkpt lat="43.00179" lon="-0.13227">
        <ele>984</ele>
        <time>2026-08-31T13:21:25.000Z</time>
      </trkpt>
      <trkpt lat="43.00156" lon="-0.1323">
        <ele>983</ele>
        <time>2026-08-31T13:21:40.000Z</time>
      </trkpt>
      <trkpt lat="43.00131" lon="-0.1323">
        <ele>983</ele>
        <time>2026-08-31T13:21:55.000Z</time>
      </trkpt>
      <trkpt lat="43.00107" lon="-0.13231">
        <ele>984</ele>
        <time>2026-08-31T13:22:11.000Z</time>
      </trkpt>
      <trkpt lat="43.00084" lon="-0.13228">
        <ele>983</ele>
        <time>2026-08-31T13:22:27.000Z</time>
      </trkpt>
      <trkpt lat="43.00062" lon="-0.13228">
        <ele>983</ele>
        <time>2026-08-31T13:22:41.000Z</time>
      </trkpt>
      <trkpt lat="43.0004" lon="-0.13225">
        <ele>982</ele>
        <time>2026-08-31T13:22:56.000Z</time>
      </trkpt>
      <trkpt lat="43.00015" lon="-0.13228">
        <ele>981</ele>
        <time>2026-08-31T13:23:13.000Z</time>
      </trkpt>
      <trkpt lat="42.99993" lon="-0.13237">
        <ele>980</ele>
        <time>2026-08-31T13:23:30.000Z</time>
      </trkpt>
      <trkpt lat="42.99979" lon="-0.13263">
        <ele>978</ele>
        <time>2026-08-31T13:23:48.000Z</time>
      </trkpt>
      <trkpt lat="42.99964" lon="-0.13286">
        <ele>977</ele>
        <time>2026-08-31T13:24:02.000Z</time>
      </trkpt>
      <trkpt lat="42.99943" lon="-0.13301">
        <ele>976</ele>
        <time>2026-08-31T13:24:16.000Z</time>
      </trkpt>
      <trkpt lat="42.99922" lon="-0.1331">
        <ele>977</ele>
        <time>2026-08-31T13:24:30.000Z</time>
      </trkpt>
      <trkpt lat="42.99905" lon="-0.13329">
        <ele>978</ele>
        <time>2026-08-31T13:24:43.000Z</time>
      </trkpt>
      <trkpt lat="42.99891" lon="-0.13353">
        <ele>980</ele>
        <time>2026-08-31T13:24:54.000Z</time>
      </trkpt>
      <trkpt lat="42.99877" lon="-0.13377">
        <ele>981</ele>
        <time>2026-08-31T13:25:05.000Z</time>
      </trkpt>
      <trkpt lat="42.99866" lon="-0.13404">
        <ele>982</ele>
        <time>2026-08-31T13:27:38.000Z</time>
      </trkpt>
      <trkpt lat="42.99863" lon="-0.13434">
        <ele>982</ele>
        <time>2026-08-31T13:28:48.000Z</time>
      </trkpt>
      <trkpt lat="42.99862" lon="-0.13466">
        <ele>981</ele>
        <time>2026-08-31T13:29:47.000Z</time>
      </trkpt>
      <trkpt lat="42.99854" lon="-0.13497">
        <ele>979</ele>
        <time>2026-08-31T13:31:02.000Z</time>
      </trkpt>
      <trkpt lat="42.99847" lon="-0.13527">
        <ele>978</ele>
        <time>2026-08-31T13:31:33.000Z</time>
      </trkpt>
      <trkpt lat="42.99842" lon="-0.13557">
        <ele>978</ele>
        <time>2026-08-31T13:32:11.000Z</time>
      </trkpt>
      <trkpt lat="42.99826" lon="-0.13572">
        <ele>977</ele>
        <time>2026-08-31T13:33:14.000Z</time>
      </trkpt>
      <trkpt lat="42.99804" lon="-0.13561">
        <ele>978</ele>
        <time>2026-08-31T13:36:26.000Z</time>
      </trkpt>
      <trkpt lat="42.99781" lon="-0.13555">
        <ele>979</ele>
        <time>2026-08-31T13:36:45.000Z</time>
      </trkpt>
      <trkpt lat="42.9976" lon="-0.13565">
        <ele>979</ele>
        <time>2026-08-31T13:37:10.000Z</time>
      </trkpt>
      <trkpt lat="42.99739" lon="-0.13563">
        <ele>980</ele>
        <time>2026-08-31T13:37:30.000Z</time>
      </trkpt>
      <trkpt lat="42.9972" lon="-0.13545">
        <ele>981</ele>
        <time>2026-08-31T13:37:54.000Z</time>
      </trkpt>
      <trkpt lat="42.997" lon="-0.13531">
        <ele>981</ele>
        <time>2026-08-31T13:38:14.000Z</time>
      </trkpt>
      <trkpt lat="42.99678" lon="-0.13534">
        <ele>981</ele>
        <time>2026-08-31T13:38:33.000Z</time>
      </trkpt>
      <trkpt lat="42.99655" lon="-0.13542">
        <ele>980</ele>
        <time>2026-08-31T13:38:55.000Z</time>
      </trkpt>
      <trkpt lat="42.99633" lon="-0.13552">
        <ele>979</ele>
        <time>2026-08-31T13:39:14.000Z</time>
      </trkpt>
      <trkpt lat="42.99611" lon="-0.1356">
        <ele>975</ele>
        <time>2026-08-31T13:39:34.000Z</time>
      </trkpt>
      <trkpt lat="42.9959" lon="-0.13574">
        <ele>972</ele>
        <time>2026-08-31T13:39:57.000Z</time>
      </trkpt>
      <trkpt lat="42.99568" lon="-0.13574">
        <ele>967</ele>
        <time>2026-08-31T13:40:21.000Z</time>
      </trkpt>
      <trkpt lat="42.99545" lon="-0.13577">
        <ele>963</ele>
        <time>2026-08-31T13:40:44.000Z</time>
      </trkpt>
      <trkpt lat="42.99522" lon="-0.13582">
        <ele>959</ele>
        <time>2026-08-31T13:41:09.000Z</time>
      </trkpt>
      <trkpt lat="42.99501" lon="-0.1359">
        <ele>955</ele>
        <time>2026-08-31T13:41:32.000Z</time>
      </trkpt>
      <trkpt lat="42.99481" lon="-0.13584">
        <ele>951</ele>
        <time>2026-08-31T13:41:57.000Z</time>
      </trkpt>
      <trkpt lat="42.99463" lon="-0.136">
        <ele>947</ele>
        <time>2026-08-31T13:42:24.000Z</time>
      </trkpt>
      <trkpt lat="42.99448" lon="-0.13623">
        <ele>943</ele>
        <time>2026-08-31T13:42:46.000Z</time>
      </trkpt>
      <trkpt lat="42.9944" lon="-0.13652">
        <ele>939</ele>
        <time>2026-08-31T13:43:19.000Z</time>
      </trkpt>
      <trkpt lat="42.99434" lon="-0.13682">
        <ele>934</ele>
        <time>2026-08-31T13:43:40.000Z</time>
      </trkpt>
      <trkpt lat="42.9943" lon="-0.13713">
        <ele>930</ele>
        <time>2026-08-31T13:44:00.000Z</time>
      </trkpt>
      <trkpt lat="42.99431" lon="-0.13744">
        <ele>925</ele>
        <time>2026-08-31T13:44:23.000Z</time>
      </trkpt>
      <trkpt lat="42.99437" lon="-0.13776">
        <ele>921</ele>
        <time>2026-08-31T13:44:44.000Z</time>
      </trkpt>
      <trkpt lat="42.99442" lon="-0.13807">
        <ele>917</ele>
        <time>2026-08-31T13:45:06.000Z</time>
      </trkpt>
      <trkpt lat="42.99427" lon="-0.13827">
        <ele>913</ele>
        <time>2026-08-31T13:45:31.000Z</time>
      </trkpt>
      <trkpt lat="42.99406" lon="-0.13832">
        <ele>910</ele>
        <time>2026-08-31T13:46:54.000Z</time>
      </trkpt>
      <trkpt lat="42.99386" lon="-0.1385">
        <ele>907</ele>
        <time>2026-08-31T13:47:08.000Z</time>
      </trkpt>
      <trkpt lat="42.99376" lon="-0.13881">
        <ele>906</ele>
        <time>2026-08-31T13:47:22.000Z</time>
      </trkpt>
      <trkpt lat="42.9937" lon="-0.13912">
        <ele>906</ele>
        <time>2026-08-31T13:47:35.000Z</time>
      </trkpt>
      <trkpt lat="42.99359" lon="-0.13939">
        <ele>906</ele>
        <time>2026-08-31T13:47:49.000Z</time>
      </trkpt>
      <trkpt lat="42.99345" lon="-0.13958">
        <ele>907</ele>
        <time>2026-08-31T13:48:03.000Z</time>
      </trkpt>
      <trkpt lat="42.99356" lon="-0.13979">
        <ele>908</ele>
        <time>2026-08-31T13:48:31.000Z</time>
      </trkpt>
      <trkpt lat="42.99351" lon="-0.14011">
        <ele>909</ele>
        <time>2026-08-31T13:48:51.000Z</time>
      </trkpt>
      <trkpt lat="42.99345" lon="-0.14044">
        <ele>912</ele>
        <time>2026-08-31T13:49:05.000Z</time>
      </trkpt>
      <trkpt lat="42.99338" lon="-0.14076">
        <ele>914</ele>
        <time>2026-08-31T13:49:20.000Z</time>
      </trkpt>
      <trkpt lat="42.9933" lon="-0.14106">
        <ele>916</ele>
        <time>2026-08-31T13:49:34.000Z</time>
      </trkpt>
      <trkpt lat="42.99317" lon="-0.1413">
        <ele>918</ele>
        <time>2026-08-31T13:49:47.000Z</time>
      </trkpt>
      <trkpt lat="42.99309" lon="-0.14159">
        <ele>919</ele>
        <time>2026-08-31T13:49:59.000Z</time>
      </trkpt>
      <trkpt lat="42.99297" lon="-0.14186">
        <ele>921</ele>
        <time>2026-08-31T13:50:12.000Z</time>
      </trkpt>
      <trkpt lat="42.99283" lon="-0.14216">
        <ele>924</ele>
        <time>2026-08-31T13:50:27.000Z</time>
      </trkpt>
      <trkpt lat="42.9927" lon="-0.14248">
        <ele>927</ele>
        <time>2026-08-31T13:50:42.000Z</time>
      </trkpt>
      <trkpt lat="42.99262" lon="-0.14279">
        <ele>931</ele>
        <time>2026-08-31T13:50:55.000Z</time>
      </trkpt>
      <trkpt lat="42.99262" lon="-0.14311">
        <ele>935</ele>
        <time>2026-08-31T13:51:07.000Z</time>
      </trkpt>
      <trkpt lat="42.99268" lon="-0.14342">
        <ele>939</ele>
        <time>2026-08-31T13:51:19.000Z</time>
      </trkpt>
      <trkpt lat="42.9927" lon="-0.14374">
        <ele>943</ele>
        <time>2026-08-31T13:51:30.000Z</time>
      </trkpt>
      <trkpt lat="42.99266" lon="-0.14409">
        <ele>947</ele>
        <time>2026-08-31T13:51:42.000Z</time>
      </trkpt>
      <trkpt lat="42.99261" lon="-0.14442">
        <ele>952</ele>
        <time>2026-08-31T13:51:57.000Z</time>
      </trkpt>
      <trkpt lat="42.99256" lon="-0.14475">
        <ele>956</ele>
        <time>2026-08-31T13:52:09.000Z</time>
      </trkpt>
      <trkpt lat="42.99253" lon="-0.14509">
        <ele>960</ele>
        <time>2026-08-31T13:52:21.000Z</time>
      </trkpt>
      <trkpt lat="42.99258" lon="-0.14539">
        <ele>963</ele>
        <time>2026-08-31T13:52:33.000Z</time>
      </trkpt>
      <trkpt lat="42.99267" lon="-0.14568">
        <ele>965</ele>
        <time>2026-08-31T13:52:42.000Z</time>
      </trkpt>
      <trkpt lat="42.99274" lon="-0.14602">
        <ele>966</ele>
        <time>2026-08-31T13:52:57.000Z</time>
      </trkpt>
      <trkpt lat="42.99272" lon="-0.14636">
        <ele>968</ele>
        <time>2026-08-31T13:53:15.000Z</time>
      </trkpt>
      <trkpt lat="42.99269" lon="-0.14669">
        <ele>970</ele>
        <time>2026-08-31T13:53:27.000Z</time>
      </trkpt>
      <trkpt lat="42.99259" lon="-0.147">
        <ele>972</ele>
        <time>2026-08-31T13:53:42.000Z</time>
      </trkpt>
      <trkpt lat="42.99268" lon="-0.14732">
        <ele>973</ele>
        <time>2026-08-31T13:53:57.000Z</time>
      </trkpt>
      <trkpt lat="42.9928" lon="-0.14765">
        <ele>974</ele>
        <time>2026-08-31T13:54:12.000Z</time>
      </trkpt>
      <trkpt lat="42.99278" lon="-0.14796">
        <ele>975</ele>
        <time>2026-08-31T13:54:24.000Z</time>
      </trkpt>
      <trkpt lat="42.99261" lon="-0.14818">
        <ele>975</ele>
        <time>2026-08-31T13:56:13.000Z</time>
      </trkpt>
      <trkpt lat="42.9924" lon="-0.14833">
        <ele>975</ele>
        <time>2026-08-31T13:56:26.000Z</time>
      </trkpt>
      <trkpt lat="42.99223" lon="-0.14854">
        <ele>976</ele>
        <time>2026-08-31T13:56:55.000Z</time>
      </trkpt>
      <trkpt lat="42.99202" lon="-0.14863">
        <ele>976</ele>
        <time>2026-08-31T13:57:49.000Z</time>
      </trkpt>
      <trkpt lat="42.99178" lon="-0.14865">
        <ele>976</ele>
        <time>2026-08-31T13:58:13.000Z</time>
      </trkpt>
      <trkpt lat="42.99157" lon="-0.1488">
        <ele>975</ele>
        <time>2026-08-31T13:58:28.000Z</time>
      </trkpt>
      <trkpt lat="42.99144" lon="-0.14906">
        <ele>975</ele>
        <time>2026-08-31T13:58:43.000Z</time>
      </trkpt>
      <trkpt lat="42.99137" lon="-0.14936">
        <ele>976</ele>
        <time>2026-08-31T13:58:56.000Z</time>
      </trkpt>
      <trkpt lat="42.99129" lon="-0.14968">
        <ele>979</ele>
        <time>2026-08-31T13:59:09.000Z</time>
      </trkpt>
      <trkpt lat="42.9912" lon="-0.15">
        <ele>982</ele>
        <time>2026-08-31T13:59:21.000Z</time>
      </trkpt>
      <trkpt lat="42.99101" lon="-0.15018">
        <ele>985</ele>
        <time>2026-08-31T13:59:33.000Z</time>
      </trkpt>
      <trkpt lat="42.99077" lon="-0.15025">
        <ele>987</ele>
        <time>2026-08-31T13:59:43.000Z</time>
      </trkpt>
      <trkpt lat="42.99047" lon="-0.15043">
        <ele>988</ele>
        <time>2026-08-31T13:59:51.000Z</time>
      </trkpt>
      <trkpt lat="42.99015" lon="-0.15067">
        <ele>988</ele>
        <time>2026-08-31T14:00:02.000Z</time>
      </trkpt>
      <trkpt lat="42.98996" lon="-0.1509">
        <ele>989</ele>
        <time>2026-08-31T14:00:06.000Z</time>
      </trkpt>
      <trkpt lat="42.98981" lon="-0.15119">
        <ele>988</ele>
        <time>2026-08-31T14:00:10.000Z</time>
      </trkpt>
      <trkpt lat="42.98966" lon="-0.15146">
        <ele>987</ele>
        <time>2026-08-31T14:00:16.000Z</time>
      </trkpt>
      <trkpt lat="42.98949" lon="-0.15169">
        <ele>984</ele>
        <time>2026-08-31T14:00:24.000Z</time>
      </trkpt>
      <trkpt lat="42.98929" lon="-0.15183">
        <ele>980</ele>
        <time>2026-08-31T14:00:35.000Z</time>
      </trkpt>
      <trkpt lat="42.98911" lon="-0.15204">
        <ele>977</ele>
        <time>2026-08-31T14:00:42.000Z</time>
      </trkpt>
      <trkpt lat="42.98893" lon="-0.15224">
        <ele>974</ele>
        <time>2026-08-31T14:00:50.000Z</time>
      </trkpt>
      <trkpt lat="42.98872" lon="-0.15235">
        <ele>971</ele>
        <time>2026-08-31T14:00:58.000Z</time>
      </trkpt>
      <trkpt lat="42.98851" lon="-0.1525">
        <ele>969</ele>
        <time>2026-08-31T14:01:10.000Z</time>
      </trkpt>
      <trkpt lat="42.98833" lon="-0.1527">
        <ele>967</ele>
        <time>2026-08-31T14:01:23.000Z</time>
      </trkpt>
      <trkpt lat="42.98819" lon="-0.15296">
        <ele>965</ele>
        <time>2026-08-31T14:01:36.000Z</time>
      </trkpt>
      <trkpt lat="42.98803" lon="-0.15318">
        <ele>963</ele>
        <time>2026-08-31T14:01:48.000Z</time>
      </trkpt>
      <trkpt lat="42.98783" lon="-0.15339">
        <ele>962</ele>
        <time>2026-08-31T14:02:03.000Z</time>
      </trkpt>
      <trkpt lat="42.98766" lon="-0.15365">
        <ele>961</ele>
        <time>2026-08-31T14:02:18.000Z</time>
      </trkpt>
      <trkpt lat="42.98749" lon="-0.1539">
        <ele>959</ele>
        <time>2026-08-31T14:02:30.000Z</time>
      </trkpt>
      <trkpt lat="42.98732" lon="-0.15418">
        <ele>958</ele>
        <time>2026-08-31T14:02:45.000Z</time>
      </trkpt>
      <trkpt lat="42.98718" lon="-0.15444">
        <ele>957</ele>
        <time>2026-08-31T14:02:57.000Z</time>
      </trkpt>
      <trkpt lat="42.98703" lon="-0.15474">
        <ele>957</ele>
        <time>2026-08-31T14:03:12.000Z</time>
      </trkpt>
      <trkpt lat="42.98691" lon="-0.15505">
        <ele>957</ele>
        <time>2026-08-31T14:03:27.000Z</time>
      </trkpt>
      <trkpt lat="42.9868" lon="-0.1554">
        <ele>957</ele>
        <time>2026-08-31T14:03:42.000Z</time>
      </trkpt>
      <trkpt lat="42.98671" lon="-0.15576">
        <ele>956</ele>
        <time>2026-08-31T14:03:51.000Z</time>
      </trkpt>
      <trkpt lat="42.98658" lon="-0.15613">
        <ele>954</ele>
        <time>2026-08-31T14:04:03.000Z</time>
      </trkpt>
      <trkpt lat="42.9864" lon="-0.15636">
        <ele>953</ele>
        <time>2026-08-31T14:04:09.000Z</time>
      </trkpt>
      <trkpt lat="42.98617" lon="-0.15662">
        <ele>952</ele>
        <time>2026-08-31T14:04:24.000Z</time>
      </trkpt>
      <trkpt lat="42.98589" lon="-0.15728">
        <ele>952</ele>
        <time>2026-08-31T14:04:38.000Z</time>
      </trkpt>
      <trkpt lat="42.98571" lon="-0.1576">
        <ele>952</ele>
        <time>2026-08-31T14:04:47.000Z</time>
      </trkpt>
      <trkpt lat="42.98555" lon="-0.15786">
        <ele>951</ele>
        <time>2026-08-31T14:04:57.000Z</time>
      </trkpt>
      <trkpt lat="42.98539" lon="-0.15808">
        <ele>951</ele>
        <time>2026-08-31T14:05:07.000Z</time>
      </trkpt>
      <trkpt lat="42.98526" lon="-0.15835">
        <ele>949</ele>
        <time>2026-08-31T14:05:17.000Z</time>
      </trkpt>
      <trkpt lat="42.98511" lon="-0.15863">
        <ele>948</ele>
        <time>2026-08-31T14:05:27.000Z</time>
      </trkpt>
      <trkpt lat="42.98496" lon="-0.15893">
        <ele>948</ele>
        <time>2026-08-31T14:05:36.000Z</time>
      </trkpt>
      <trkpt lat="42.98482" lon="-0.15918">
        <ele>946</ele>
        <time>2026-08-31T14:05:48.000Z</time>
      </trkpt>
      <trkpt lat="42.9847" lon="-0.15948">
        <ele>945</ele>
        <time>2026-08-31T14:06:03.000Z</time>
      </trkpt>
      <trkpt lat="42.98454" lon="-0.15976">
        <ele>944</ele>
        <time>2026-08-31T14:06:18.000Z</time>
      </trkpt>
      <trkpt lat="42.98445" lon="-0.16011">
        <ele>944</ele>
        <time>2026-08-31T14:06:30.000Z</time>
      </trkpt>
      <trkpt lat="42.98437" lon="-0.16046">
        <ele>943</ele>
        <time>2026-08-31T14:06:42.000Z</time>
      </trkpt>
      <trkpt lat="42.98428" lon="-0.16079">
        <ele>944</ele>
        <time>2026-08-31T14:06:55.000Z</time>
      </trkpt>
      <trkpt lat="42.98417" lon="-0.16107">
        <ele>944</ele>
        <time>2026-08-31T14:07:09.000Z</time>
      </trkpt>
      <trkpt lat="42.98409" lon="-0.16136">
        <ele>944</ele>
        <time>2026-08-31T14:07:21.000Z</time>
      </trkpt>
      <trkpt lat="42.98399" lon="-0.16167">
        <ele>945</ele>
        <time>2026-08-31T14:07:33.000Z</time>
      </trkpt>
      <trkpt lat="42.98386" lon="-0.16196">
        <ele>945</ele>
        <time>2026-08-31T14:07:50.000Z</time>
      </trkpt>
      <trkpt lat="42.98377" lon="-0.16228">
        <ele>945</ele>
        <time>2026-08-31T14:08:05.000Z</time>
      </trkpt>
      <trkpt lat="42.98372" lon="-0.1626">
        <ele>945</ele>
        <time>2026-08-31T14:08:17.000Z</time>
      </trkpt>
      <trkpt lat="42.98366" lon="-0.16295">
        <ele>946</ele>
        <time>2026-08-31T14:08:32.000Z</time>
      </trkpt>
      <trkpt lat="42.98361" lon="-0.16328">
        <ele>947</ele>
        <time>2026-08-31T14:08:44.000Z</time>
      </trkpt>
      <trkpt lat="42.98361" lon="-0.16351">
        <ele>948</ele>
        <time>2026-08-31T14:08:56.000Z</time>
      </trkpt>
      <trkpt lat="42.98366" lon="-0.16338">
        <ele>949</ele>
        <time>2026-08-31T14:09:20.000Z</time>
      </trkpt>
      <trkpt lat="42.9836" lon="-0.16365">
        <ele>952</ele>
        <time>2026-08-31T14:12:35.000Z</time>
      </trkpt>
      <trkpt lat="42.98355" lon="-0.16401">
        <ele>954</ele>
        <time>2026-08-31T14:12:47.000Z</time>
      </trkpt>
      <trkpt lat="42.98355" lon="-0.16435">
        <ele>956</ele>
        <time>2026-08-31T14:12:59.000Z</time>
      </trkpt>
      <trkpt lat="42.9836" lon="-0.16468">
        <ele>959</ele>
        <time>2026-08-31T14:13:09.000Z</time>
      </trkpt>
      <trkpt lat="42.98373" lon="-0.16498">
        <ele>960</ele>
        <time>2026-08-31T14:13:19.000Z</time>
      </trkpt>
      <trkpt lat="42.98387" lon="-0.16522">
        <ele>961</ele>
        <time>2026-08-31T14:13:27.000Z</time>
      </trkpt>
      <trkpt lat="42.98399" lon="-0.16548">
        <ele>962</ele>
        <time>2026-08-31T14:13:36.000Z</time>
      </trkpt>
      <trkpt lat="42.98399" lon="-0.16583">
        <ele>963</ele>
        <time>2026-08-31T14:13:45.000Z</time>
      </trkpt>
      <trkpt lat="42.98395" lon="-0.16616">
        <ele>963</ele>
        <time>2026-08-31T14:13:55.000Z</time>
      </trkpt>
      <trkpt lat="42.98394" lon="-0.1665">
        <ele>964</ele>
        <time>2026-08-31T14:14:05.000Z</time>
      </trkpt>
      <trkpt lat="42.98392" lon="-0.16685">
        <ele>964</ele>
        <time>2026-08-31T14:14:16.000Z</time>
      </trkpt>
      <trkpt lat="42.98389" lon="-0.16719">
        <ele>964</ele>
        <time>2026-08-31T14:14:36.000Z</time>
      </trkpt>
      <trkpt lat="42.98383" lon="-0.1675">
        <ele>964</ele>
        <time>2026-08-31T14:14:48.000Z</time>
      </trkpt>
      <trkpt lat="42.98375" lon="-0.16779">
        <ele>965</ele>
        <time>2026-08-31T14:15:00.000Z</time>
      </trkpt>
      <trkpt lat="42.98372" lon="-0.1681">
        <ele>965</ele>
        <time>2026-08-31T14:15:12.000Z</time>
      </trkpt>
      <trkpt lat="42.98375" lon="-0.16841">
        <ele>965</ele>
        <time>2026-08-31T14:15:24.000Z</time>
      </trkpt>
      <trkpt lat="42.98384" lon="-0.16871">
        <ele>966</ele>
        <time>2026-08-31T14:15:36.000Z</time>
      </trkpt>
      <trkpt lat="42.98389" lon="-0.16903">
        <ele>967</ele>
        <time>2026-08-31T14:15:49.000Z</time>
      </trkpt>
      <trkpt lat="42.98385" lon="-0.16933">
        <ele>968</ele>
        <time>2026-08-31T14:16:00.000Z</time>
      </trkpt>
      <trkpt lat="42.9838" lon="-0.16963">
        <ele>968</ele>
        <time>2026-08-31T14:16:12.000Z</time>
      </trkpt>
      <trkpt lat="42.98375" lon="-0.16993">
        <ele>969</ele>
        <time>2026-08-31T14:16:24.000Z</time>
      </trkpt>
      <trkpt lat="42.9837" lon="-0.17025">
        <ele>970</ele>
        <time>2026-08-31T14:16:36.000Z</time>
      </trkpt>
      <trkpt lat="42.98365" lon="-0.17061">
        <ele>970</ele>
        <time>2026-08-31T14:16:51.000Z</time>
      </trkpt>
      <trkpt lat="42.98358" lon="-0.17098">
        <ele>971</ele>
        <time>2026-08-31T14:17:03.000Z</time>
      </trkpt>
      <trkpt lat="42.98347" lon="-0.1713">
        <ele>972</ele>
        <time>2026-08-31T14:17:12.000Z</time>
      </trkpt>
      <trkpt lat="42.98334" lon="-0.17159">
        <ele>973</ele>
        <time>2026-08-31T14:17:22.000Z</time>
      </trkpt>
      <trkpt lat="42.9832" lon="-0.17188">
        <ele>974</ele>
        <time>2026-08-31T14:17:32.000Z</time>
      </trkpt>
      <trkpt lat="42.98305" lon="-0.17218">
        <ele>975</ele>
        <time>2026-08-31T14:17:42.000Z</time>
      </trkpt>
      <trkpt lat="42.9829" lon="-0.17243">
        <ele>977</ele>
        <time>2026-08-31T14:17:50.000Z</time>
      </trkpt>
      <trkpt lat="42.98274" lon="-0.17268">
        <ele>980</ele>
        <time>2026-08-31T14:18:00.000Z</time>
      </trkpt>
      <trkpt lat="42.98261" lon="-0.17297">
        <ele>983</ele>
        <time>2026-08-31T14:18:10.000Z</time>
      </trkpt>
      <trkpt lat="42.98252" lon="-0.17327">
        <ele>986</ele>
        <time>2026-08-31T14:18:20.000Z</time>
      </trkpt>
      <trkpt lat="42.98247" lon="-0.1736">
        <ele>990</ele>
        <time>2026-08-31T14:18:30.000Z</time>
      </trkpt>
      <trkpt lat="42.98238" lon="-0.17392">
        <ele>990</ele>
        <time>2026-08-31T14:18:40.000Z</time>
      </trkpt>
      <trkpt lat="42.98229" lon="-0.17421">
        <ele>990</ele>
        <time>2026-08-31T14:18:50.000Z</time>
      </trkpt>
      <trkpt lat="42.9822" lon="-0.1745">
        <ele>989</ele>
        <time>2026-08-31T14:18:59.000Z</time>
      </trkpt>
      <trkpt lat="42.98213" lon="-0.1748">
        <ele>988</ele>
        <time>2026-08-31T14:19:09.000Z</time>
      </trkpt>
      <trkpt lat="42.98205" lon="-0.17514">
        <ele>988</ele>
        <time>2026-08-31T14:19:19.000Z</time>
      </trkpt>
      <trkpt lat="42.98198" lon="-0.17546">
        <ele>987</ele>
        <time>2026-08-31T14:19:31.000Z</time>
      </trkpt>
      <trkpt lat="42.98185" lon="-0.17571">
        <ele>987</ele>
        <time>2026-08-31T14:19:45.000Z</time>
      </trkpt>
      <trkpt lat="42.98171" lon="-0.17596">
        <ele>986</ele>
        <time>2026-08-31T14:20:03.000Z</time>
      </trkpt>
      <trkpt lat="42.9816" lon="-0.17627">
        <ele>985</ele>
        <time>2026-08-31T14:20:17.000Z</time>
      </trkpt>
      <trkpt lat="42.98155" lon="-0.17661">
        <ele>987</ele>
        <time>2026-08-31T14:20:29.000Z</time>
        <extensions>
          <visugpx:TrkExtension xmlns:visugpx="https://www.visugpx.com/editgpx/">
            <visugpx:node>2</visugpx:node>
            </visugpx:TrkExtension>
        </extensions>
      </trkpt>
      <trkpt lat="42.98144" lon="-0.17686">
        <ele>931</ele>
        <extensions>
          <visugpx:TrkExtension xmlns:visugpx="https://www.visugpx.com/editgpx/">
            <visugpx:node>3</visugpx:node>
            </visugpx:TrkExtension>
        </extensions>
      </trkpt>
      <trkpt lat="42.98089" lon="-0.17696">
        <ele>923</ele>
        <extensions>
          <visugpx:TrkExtension xmlns:visugpx="https://www.visugpx.com/editgpx/">
            <visugpx:node>4</visugpx:node>
            </visugpx:TrkExtension>
        </extensions>
      </trkpt>
      <trkpt lat="42.98049" lon="-0.17686">
        <ele>915</ele>
        <extensions>
          <visugpx:TrkExtension xmlns:visugpx="https://www.visugpx.com/editgpx/">
            <visugpx:node>5</visugpx:node>
            </visugpx:TrkExtension>
        </extensions>
      </trkpt>
      <trkpt lat="42.98029" lon="-0.17681">
        <ele>909.4</ele>
        <extensions>
          <visugpx:TrkExtension xmlns:visugpx="https://www.visugpx.com/editgpx/">
            <visugpx:node>6</visugpx:node>
            </visugpx:TrkExtension>
        </extensions>
      </trkpt>
      <trkpt lat="42.98006" lon="-0.17704">
        <ele>903.2</ele>
        <extensions>
          <visugpx:TrkExtension xmlns:visugpx="https://www.visugpx.com/editgpx/">
            <visugpx:node>7</visugpx:node>
            </visugpx:TrkExtension>
        </extensions>
      </trkpt>
      <trkpt lat="42.97992" lon="-0.17737">
        <ele>901.6</ele>
        <extensions>
          <visugpx:TrkExtension xmlns:visugpx="https://www.visugpx.com/editgpx/">
            <visugpx:node>8</visugpx:node>
            </visugpx:TrkExtension>
        </extensions>
      </trkpt>
      <trkpt lat="42.97967" lon="-0.17749">
        <ele>892.8</ele>
        <extensions>
          <visugpx:TrkExtension xmlns:visugpx="https://www.visugpx.com/editgpx/">
            <visugpx:node>9</visugpx:node>
            </visugpx:TrkExtension>
        </extensions>
      </trkpt>
      <trkpt lat="42.97944" lon="-0.17777">
        <ele>885.5</ele>
        <extensions>
          <visugpx:TrkExtension xmlns:visugpx="https://www.visugpx.com/editgpx/">
            <visugpx:node>10</visugpx:node>
            </visugpx:TrkExtension>
        </extensions>
      </trkpt>
      <trkpt lat="42.97931" lon="-0.17808">
        <ele>881</ele>
        <extensions>
          <visugpx:TrkExtension xmlns:visugpx="https://www.visugpx.com/editgpx/">
            <visugpx:node>11</visugpx:node>
            </visugpx:TrkExtension>
        </extensions>
      </trkpt>
      <trkpt lat="42.97925" lon="-0.17843">
        <ele>879.1</ele>
        <extensions>
          <visugpx:TrkExtension xmlns:visugpx="https://www.visugpx.com/editgpx/">
            <visugpx:node>12</visugpx:node>
            </visugpx:TrkExtension>
        </extensions>
      </trkpt>
      <trkpt lat="42.97929" lon="-0.17892">
        <ele>882.9</ele>
        <extensions>
          <visugpx:TrkExtension xmlns:visugpx="https://www.visugpx.com/editgpx/">
            <visugpx:node>13</visugpx:node>
            </visugpx:TrkExtension>
        </extensions>
      </trkpt>
      <trkpt lat="42.97918" lon="-0.17922">
        <ele>878.8</ele>
        <extensions>
          <visugpx:TrkExtension xmlns:visugpx="https://www.visugpx.com/editgpx/">
            <visugpx:node>14</visugpx:node>
            </visugpx:TrkExtension>
        </extensions>
      </trkpt>
      <trkpt lat="42.97899" lon="-0.17951">
        <ele>872.4</ele>
        <extensions>
          <visugpx:TrkExtension xmlns:visugpx="https://www.visugpx.com/editgpx/">
            <visugpx:node>15</visugpx:node>
            </visugpx:TrkExtension>
        </extensions>
      </trkpt>
      <trkpt lat="42.97885" lon="-0.17978">
        <ele>868.8</ele>
        <extensions>
          <visugpx:TrkExtension xmlns:visugpx="https://www.visugpx.com/editgpx/">
            <visugpx:node>16</visugpx:node>
            </visugpx:TrkExtension>
        </extensions>
      </trkpt>
      <trkpt lat="42.97878" lon="-0.18009">
        <ele>868.1</ele>
        <extensions>
          <visugpx:TrkExtension xmlns:visugpx="https://www.visugpx.com/editgpx/">
            <visugpx:node>17</visugpx:node>
            </visugpx:TrkExtension>
        </extensions>
      </trkpt>
      <trkpt lat="42.97867" lon="-0.18045">
        <ele>867.1</ele>
        <extensions>
          <visugpx:TrkExtension xmlns:visugpx="https://www.visugpx.com/editgpx/">
            <visugpx:node>18</visugpx:node>
            </visugpx:TrkExtension>
        </extensions>
      </trkpt>
      <trkpt lat="42.9784" lon="-0.18056">
        <ele>860</ele>
        <extensions>
          <visugpx:TrkExtension xmlns:visugpx="https://www.visugpx.com/editgpx/">
            <visugpx:node>19</visugpx:node>
            </visugpx:TrkExtension>
        </extensions>
      </trkpt>
      <trkpt lat="42.97814" lon="-0.18057">
        <ele>853.2</ele>
        <extensions>
          <visugpx:TrkExtension xmlns:visugpx="https://www.visugpx.com/editgpx/">
            <visugpx:node>20</visugpx:node>
            </visugpx:TrkExtension>
        </extensions>
      </trkpt>
      <trkpt lat="42.97796" lon="-0.18047">
        <ele>848.3</ele>
        <extensions>
          <visugpx:TrkExtension xmlns:visugpx="https://www.visugpx.com/editgpx/">
            <visugpx:node>21</visugpx:node>
            </visugpx:TrkExtension>
        </extensions>
      </trkpt>
      <trkpt lat="42.97788" lon="-0.18024">
        <ele>845</ele>
        <extensions>
          <visugpx:TrkExtension xmlns:visugpx="https://www.visugpx.com/editgpx/">
            <visugpx:node>22</visugpx:node>
            </visugpx:TrkExtension>
        </extensions>
      </trkpt>
      <trkpt lat="42.97783" lon="-0.18">
        <ele>842</ele>
        <extensions>
          <visugpx:TrkExtension xmlns:visugpx="https://www.visugpx.com/editgpx/">
            <visugpx:node>23</visugpx:node>
            </visugpx:TrkExtension>
        </extensions>
      </trkpt>
      <trkpt lat="42.97787" lon="-0.17975">
        <ele>840.9</ele>
        <extensions>
          <visugpx:TrkExtension xmlns:visugpx="https://www.visugpx.com/editgpx/">
            <visugpx:node>24</visugpx:node>
            </visugpx:TrkExtension>
        </extensions>
      </trkpt>
      <trkpt lat="42.97792" lon="-0.17957">
        <ele>840.7</ele>
        <extensions>
          <visugpx:TrkExtension xmlns:visugpx="https://www.visugpx.com/editgpx/">
            <visugpx:node>25</visugpx:node>
            </visugpx:TrkExtension>
        </extensions>
      </trkpt>
      <trkpt lat="42.97769" lon="-0.17944">
        <ele>836.7</ele>
        <extensions>
          <visugpx:TrkExtension xmlns:visugpx="https://www.visugpx.com/editgpx/">
            <visugpx:node>26</visugpx:node>
            </visugpx:TrkExtension>
        </extensions>
      </trkpt>
      <trkpt lat="42.9776" lon="-0.17959">
        <ele>836</ele>
        <extensions>
          <visugpx:TrkExtension xmlns:visugpx="https://www.visugpx.com/editgpx/">
            <visugpx:node>27</visugpx:node>
            </visugpx:TrkExtension>
        </extensions>
      </trkpt>
      <trkpt lat="42.97759" lon="-0.17994">
        <ele>837.9</ele>
        <extensions>
          <visugpx:TrkExtension xmlns:visugpx="https://www.visugpx.com/editgpx/">
            <visugpx:node>28</visugpx:node>
            </visugpx:TrkExtension>
        </extensions>
      </trkpt>
      <trkpt lat="42.97754" lon="-0.18018">
        <ele>838.3</ele>
        <extensions>
          <visugpx:TrkExtension xmlns:visugpx="https://www.visugpx.com/editgpx/">
            <visugpx:node>29</visugpx:node>
            </visugpx:TrkExtension>
        </extensions>
      </trkpt>
      <trkpt lat="42.97752" lon="-0.18042">
        <ele>839.3</ele>
        <extensions>
          <visugpx:TrkExtension xmlns:visugpx="https://www.visugpx.com/editgpx/">
            <visugpx:node>30</visugpx:node>
            </visugpx:TrkExtension>
        </extensions>
      </trkpt>
      <trkpt lat="42.97734" lon="-0.18045">
        <ele>836.6</ele>
        <extensions>
          <visugpx:TrkExtension xmlns:visugpx="https://www.visugpx.com/editgpx/">
            <visugpx:node>31</visugpx:node>
            </visugpx:TrkExtension>
        </extensions>
      </trkpt>
      <trkpt lat="42.97719" lon="-0.18048">
        <ele>834.4</ele>
        <extensions>
          <visugpx:TrkExtension xmlns:visugpx="https://www.visugpx.com/editgpx/">
            <visugpx:node>32</visugpx:node>
            </visugpx:TrkExtension>
        </extensions>
      </trkpt>
      <trkpt lat="42.97716" lon="-0.18068">
        <ele>834.8</ele>
        <extensions>
          <visugpx:TrkExtension xmlns:visugpx="https://www.visugpx.com/editgpx/">
            <visugpx:node>33</visugpx:node>
            </visugpx:TrkExtension>
        </extensions>
      </trkpt>
      <trkpt lat="42.97636" lon="-0.18224">
        <ele>835</ele>
        <extensions>
          <visugpx:TrkExtension xmlns:visugpx="https://www.visugpx.com/editgpx/">
            <visugpx:node>34</visugpx:node>
            </visugpx:TrkExtension>
        </extensions>
      </trkpt>
      <trkpt lat="42.97607" lon="-0.18293">
        <ele>836.3</ele>
        <extensions>
          <visugpx:TrkExtension xmlns:visugpx="https://www.visugpx.com/editgpx/">
            <visugpx:node>35</visugpx:node>
            </visugpx:TrkExtension>
        </extensions>
      </trkpt>
      <trkpt lat="42.97587" lon="-0.18318">
        <ele>835.7</ele>
        <extensions>
          <visugpx:TrkExtension xmlns:visugpx="https://www.visugpx.com/editgpx/">
            <visugpx:node>36</visugpx:node>
            </visugpx:TrkExtension>
        </extensions>
      </trkpt>
      <trkpt lat="42.97564" lon="-0.18334">
        <ele>834.6</ele>
        <extensions>
          <visugpx:TrkExtension xmlns:visugpx="https://www.visugpx.com/editgpx/">
            <visugpx:node>37</visugpx:node>
            </visugpx:TrkExtension>
        </extensions>
      </trkpt>
      <trkpt lat="42.9755" lon="-0.18329">
        <ele>834.2</ele>
        <extensions>
          <visugpx:TrkExtension xmlns:visugpx="https://www.visugpx.com/editgpx/">
            <visugpx:node>38</visugpx:node>
            </visugpx:TrkExtension>
        </extensions>
      </trkpt>
      <trkpt lat="42.97543" lon="-0.18364">
        <ele>835.5</ele>
        <extensions>
          <visugpx:TrkExtension xmlns:visugpx="https://www.visugpx.com/editgpx/">
            <visugpx:node>39</visugpx:node>
            </visugpx:TrkExtension>
        </extensions>
      </trkpt>
      <trkpt lat="42.97534" lon="-0.18425">
        <ele>837.2</ele>
        <extensions>
          <visugpx:TrkExtension xmlns:visugpx="https://www.visugpx.com/editgpx/">
            <visugpx:node>40</visugpx:node>
            </visugpx:TrkExtension>
        </extensions>
      </trkpt>
      <trkpt lat="42.9756" lon="-0.18543">
        <ele>840.4</ele>
        <extensions>
          <visugpx:TrkExtension xmlns:visugpx="https://www.visugpx.com/editgpx/">
            <visugpx:node>41</visugpx:node>
            </visugpx:TrkExtension>
        </extensions>
      </trkpt>
      <trkpt lat="42.9753" lon="-0.18587">
        <ele>841.2</ele>
        <extensions>
          <visugpx:TrkExtension xmlns:visugpx="https://www.visugpx.com/editgpx/">
            <visugpx:node>42</visugpx:node>
            </visugpx:TrkExtension>
        </extensions>
      </trkpt>
      <trkpt lat="42.97512" lon="-0.18625">
        <ele>843.1</ele>
        <extensions>
          <visugpx:TrkExtension xmlns:visugpx="https://www.visugpx.com/editgpx/">
            <visugpx:node>43</visugpx:node>
            </visugpx:TrkExtension>
        </extensions>
      </trkpt>
      <trkpt lat="42.97505" lon="-0.18667">
        <ele>845.2</ele>
        <extensions>
          <visugpx:TrkExtension xmlns:visugpx="https://www.visugpx.com/editgpx/">
            <visugpx:node>44</visugpx:node>
            </visugpx:TrkExtension>
        </extensions>
      </trkpt>
      <trkpt lat="42.97499" lon="-0.18704">
        <ele>847.6</ele>
        <extensions>
          <visugpx:TrkExtension xmlns:visugpx="https://www.visugpx.com/editgpx/">
            <visugpx:node>45</visugpx:node>
            </visugpx:TrkExtension>
        </extensions>
      </trkpt>
      <trkpt lat="42.97477" lon="-0.18737">
        <ele>847.9</ele>
        <extensions>
          <visugpx:TrkExtension xmlns:visugpx="https://www.visugpx.com/editgpx/">
            <visugpx:node>46</visugpx:node>
            </visugpx:TrkExtension>
        </extensions>
      </trkpt>
      <trkpt lat="42.97461" lon="-0.18771">
        <ele>847.6</ele>
        <extensions>
          <visugpx:TrkExtension xmlns:visugpx="https://www.visugpx.com/editgpx/">
            <visugpx:node>47</visugpx:node>
            </visugpx:TrkExtension>
        </extensions>
      </trkpt>
      <trkpt lat="42.97459" lon="-0.1879">
        <ele>848</ele>
        <extensions>
          <visugpx:TrkExtension xmlns:visugpx="https://www.visugpx.com/editgpx/">
            <visugpx:node>48</visugpx:node>
            </visugpx:TrkExtension>
        </extensions>
      </trkpt>
      <trkpt lat="42.97434" lon="-0.18789">
        <ele>847.4</ele>
        <extensions>
          <visugpx:TrkExtension xmlns:visugpx="https://www.visugpx.com/editgpx/">
            <visugpx:node>49</visugpx:node>
            </visugpx:TrkExtension>
        </extensions>
      </trkpt>
      <trkpt lat="42.97377" lon="-0.18728">
        <ele>846.1</ele>
        <extensions>
          <visugpx:TrkExtension xmlns:visugpx="https://www.visugpx.com/editgpx/">
            <visugpx:node>50</visugpx:node>
            </visugpx:TrkExtension>
        </extensions>
      </trkpt>
      <trkpt lat="42.9732" lon="-0.18797">
        <ele>847.2</ele>
        <extensions>
          <visugpx:TrkExtension xmlns:visugpx="https://www.visugpx.com/editgpx/">
            <visugpx:node>51</visugpx:node>
            </visugpx:TrkExtension>
        </extensions>
      </trkpt>
      <trkpt lat="42.9721" lon="-0.18868">
        <ele>846.8</ele>
        <extensions>
          <visugpx:TrkExtension xmlns:visugpx="https://www.visugpx.com/editgpx/">
            <visugpx:node>52</visugpx:node>
            </visugpx:TrkExtension>
        </extensions>
      </trkpt>
      <trkpt lat="42.97153" lon="-0.18923">
        <ele>846.8</ele>
        <extensions>
          <visugpx:TrkExtension xmlns:visugpx="https://www.visugpx.com/editgpx/">
            <visugpx:node>53</visugpx:node>
            </visugpx:TrkExtension>
        </extensions>
      </trkpt>
      <trkpt lat="42.97109" lon="-0.18943">
        <ele>846.9</ele>
        <extensions>
          <visugpx:TrkExtension xmlns:visugpx="https://www.visugpx.com/editgpx/">
            <visugpx:node>54</visugpx:node>
            </visugpx:TrkExtension>
        </extensions>
      </trkpt>
      <trkpt lat="42.97058" lon="-0.18953">
        <ele>846.4</ele>
        <extensions>
          <visugpx:TrkExtension xmlns:visugpx="https://www.visugpx.com/editgpx/">
            <visugpx:node>55</visugpx:node>
            </visugpx:TrkExtension>
        </extensions>
      </trkpt>
      <trkpt lat="42.96981" lon="-0.19005">
        <ele>844.3</ele>
        <extensions>
          <visugpx:TrkExtension xmlns:visugpx="https://www.visugpx.com/editgpx/">
            <visugpx:node>56</visugpx:node>
            </visugpx:TrkExtension>
        </extensions>
      </trkpt>
      <trkpt lat="42.96939" lon="-0.1905">
        <ele>842.8</ele>
        <extensions>
          <visugpx:TrkExtension xmlns:visugpx="https://www.visugpx.com/editgpx/">
            <visugpx:node>57</visugpx:node>
            </visugpx:TrkExtension>
        </extensions>
      </trkpt>
      <trkpt lat="42.96899" lon="-0.19131">
        <ele>842.2</ele>
        <extensions>
          <visugpx:TrkExtension xmlns:visugpx="https://www.visugpx.com/editgpx/">
            <visugpx:node>58</visugpx:node>
            </visugpx:TrkExtension>
        </extensions>
      </trkpt>
      <trkpt lat="42.96802" lon="-0.1923">
        <ele>842.3</ele>
        <extensions>
          <visugpx:TrkExtension xmlns:visugpx="https://www.visugpx.com/editgpx/">
            <visugpx:node>59</visugpx:node>
            </visugpx:TrkExtension>
        </extensions>
      </trkpt>
      <trkpt lat="42.96787" lon="-0.1927">
        <ele>843.7</ele>
        <extensions>
          <visugpx:TrkExtension xmlns:visugpx="https://www.visugpx.com/editgpx/">
            <visugpx:node>60</visugpx:node>
            </visugpx:TrkExtension>
        </extensions>
      </trkpt>
      <trkpt lat="42.96728" lon="-0.19306">
        <ele>845</ele>
        <extensions>
          <visugpx:TrkExtension xmlns:visugpx="https://www.visugpx.com/editgpx/">
            <visugpx:node>61</visugpx:node>
            </visugpx:TrkExtension>
        </extensions>
      </trkpt>
      <trkpt lat="42.96705" lon="-0.19303">
        <ele>844.6</ele>
        <extensions>
          <visugpx:TrkExtension xmlns:visugpx="https://www.visugpx.com/editgpx/">
            <visugpx:node>62</visugpx:node>
            </visugpx:TrkExtension>
        </extensions>
      </trkpt>
      <trkpt lat="42.96691" lon="-0.19291">
        <ele>842.2</ele>
        <extensions>
          <visugpx:TrkExtension xmlns:visugpx="https://www.visugpx.com/editgpx/">
            <visugpx:node>63</visugpx:node>
            </visugpx:TrkExtension>
        </extensions>
      </trkpt>
      <trkpt lat="42.96677" lon="-0.19279">
        <ele>840.1</ele>
        <extensions>
          <visugpx:TrkExtension xmlns:visugpx="https://www.visugpx.com/editgpx/">
            <visugpx:node>64</visugpx:node>
            </visugpx:TrkExtension>
        </extensions>
      </trkpt>
      <trkpt lat="42.96652" lon="-0.19285">
        <ele>840.9</ele>
        <extensions>
          <visugpx:TrkExtension xmlns:visugpx="https://www.visugpx.com/editgpx/">
            <visugpx:node>65</visugpx:node>
            </visugpx:TrkExtension>
        </extensions>
      </trkpt>
      <trkpt lat="42.96636" lon="-0.19317">
        <ele>842.1</ele>
        <extensions>
          <visugpx:TrkExtension xmlns:visugpx="https://www.visugpx.com/editgpx/">
            <visugpx:node>66</visugpx:node>
            </visugpx:TrkExtension>
        </extensions>
      </trkpt>
      <trkpt lat="42.96622" lon="-0.1934">
        <ele>843.6</ele>
        <extensions>
          <visugpx:TrkExtension xmlns:visugpx="https://www.visugpx.com/editgpx/">
            <visugpx:node>67</visugpx:node>
            </visugpx:TrkExtension>
        </extensions>
      </trkpt>
      <trkpt lat="42.96589" lon="-0.1934">
        <ele>842.6</ele>
        <extensions>
          <visugpx:TrkExtension xmlns:visugpx="https://www.visugpx.com/editgpx/">
            <visugpx:node>68</visugpx:node>
            </visugpx:TrkExtension>
        </extensions>
      </trkpt>
      <trkpt lat="42.9655" lon="-0.19321">
        <ele>841.1</ele>
        <extensions>
          <visugpx:TrkExtension xmlns:visugpx="https://www.visugpx.com/editgpx/">
            <visugpx:node>69</visugpx:node>
            </visugpx:TrkExtension>
        </extensions>
      </trkpt>
      <trkpt lat="42.96523" lon="-0.19309">
        <ele>840.3</ele>
        <extensions>
          <visugpx:TrkExtension xmlns:visugpx="https://www.visugpx.com/editgpx/">
            <visugpx:node>70</visugpx:node>
            </visugpx:TrkExtension>
        </extensions>
      </trkpt>
      <trkpt lat="42.96487" lon="-0.19304">
        <ele>840.6</ele>
        <extensions>
          <visugpx:TrkExtension xmlns:visugpx="https://www.visugpx.com/editgpx/">
            <visugpx:node>71</visugpx:node>
            </visugpx:TrkExtension>
        </extensions>
      </trkpt>
      <trkpt lat="42.96453" lon="-0.1931">
        <ele>842.2</ele>
        <extensions>
          <visugpx:TrkExtension xmlns:visugpx="https://www.visugpx.com/editgpx/">
            <visugpx:node>72</visugpx:node>
            </visugpx:TrkExtension>
        </extensions>
      </trkpt>
      <trkpt lat="42.96423" lon="-0.19327">
        <ele>842.1</ele>
        <extensions>
          <visugpx:TrkExtension xmlns:visugpx="https://www.visugpx.com/editgpx/">
            <visugpx:node>73</visugpx:node>
            </visugpx:TrkExtension>
        </extensions>
      </trkpt>
      <trkpt lat="42.96402" lon="-0.19353">
        <ele>842.3</ele>
        <extensions>
          <visugpx:TrkExtension xmlns:visugpx="https://www.visugpx.com/editgpx/">
            <visugpx:node>74</visugpx:node>
            </visugpx:TrkExtension>
        </extensions>
      </trkpt>
      <trkpt lat="42.96378" lon="-0.19376">
        <ele>843.2</ele>
        <extensions>
          <visugpx:TrkExtension xmlns:visugpx="https://www.visugpx.com/editgpx/">
            <visugpx:node>75</visugpx:node>
            </visugpx:TrkExtension>
        </extensions>
      </trkpt>
      <trkpt lat="42.96355" lon="-0.19402">
        <ele>843.7</ele>
        <extensions>
          <visugpx:TrkExtension xmlns:visugpx="https://www.visugpx.com/editgpx/">
            <visugpx:node>76</visugpx:node>
            </visugpx:TrkExtension>
        </extensions>
      </trkpt>
      <trkpt lat="42.96331" lon="-0.19429">
        <ele>844.6</ele>
        <extensions>
          <visugpx:TrkExtension xmlns:visugpx="https://www.visugpx.com/editgpx/">
            <visugpx:node>77</visugpx:node>
            </visugpx:TrkExtension>
        </extensions>
      </trkpt>
      <trkpt lat="42.96323" lon="-0.19452">
        <ele>845.4</ele>
        <extensions>
          <visugpx:TrkExtension xmlns:visugpx="https://www.visugpx.com/editgpx/">
            <visugpx:node>78</visugpx:node>
            </visugpx:TrkExtension>
        </extensions>
      </trkpt>
      <trkpt lat="42.963" lon="-0.19475">
        <ele>846.2</ele>
        <extensions>
          <visugpx:TrkExtension xmlns:visugpx="https://www.visugpx.com/editgpx/">
            <visugpx:node>79</visugpx:node>
            </visugpx:TrkExtension>
        </extensions>
      </trkpt>
      <trkpt lat="42.96278" lon="-0.19516">
        <ele>846.6</ele>
        <extensions>
          <visugpx:TrkExtension xmlns:visugpx="https://www.visugpx.com/editgpx/">
            <visugpx:node>80</visugpx:node>
            </visugpx:TrkExtension>
        </extensions>
      </trkpt>
      <trkpt lat="42.96259" lon="-0.19556">
        <ele>847.3</ele>
        <extensions>
          <visugpx:TrkExtension xmlns:visugpx="https://www.visugpx.com/editgpx/">
            <visugpx:node>81</visugpx:node>
            </visugpx:TrkExtension>
        </extensions>
      </trkpt>
      <trkpt lat="42.96246" lon="-0.19602">
        <ele>848.3</ele>
        <extensions>
          <visugpx:TrkExtension xmlns:visugpx="https://www.visugpx.com/editgpx/">
            <visugpx:node>82</visugpx:node>
            </visugpx:TrkExtension>
        </extensions>
      </trkpt>
      <trkpt lat="42.96239" lon="-0.19634">
        <ele>849.1</ele>
        <extensions>
          <visugpx:TrkExtension xmlns:visugpx="https://www.visugpx.com/editgpx/">
            <visugpx:node>83</visugpx:node>
            </visugpx:TrkExtension>
        </extensions>
      </trkpt>
    </trkseg>
  </trk>
</gpx>